<?xml version='1.0' encoding='UTF-8'?><gpx version="1.1" creator="JPX - https://github.com/jenetics/jpx" xmlns="http://www.topografix.com/GPX/1/1"><trk><trkseg><trkpt lat="44.3850067" lon="11.4041337"><ele>134.0</ele><time>2026-04-11T08:40:49.246Z</time></trkpt><trkpt lat="44.384959" lon="11.4040678"><ele>134.0</ele><time>2026-04-11T08:40:51.248Z</time></trkpt><trkpt lat="44.3848365" lon="11.40401"><ele>134.0</ele><time>2026-04-11T08:40:53.243Z</time></trkpt><trkpt lat="44.3847318" lon="11.403962"><ele>134.0</ele><time>2026-04-11T08:40:55.243Z</time></trkpt><trkpt lat="44.384633" lon="11.4039135"><ele>134.0</ele><time>2026-04-11T08:40:57.242Z</time></trkpt><trkpt lat="44.3845253" lon="11.403862"><ele>134.4</ele><time>2026-04-11T08:40:59.24Z</time></trkpt><trkpt lat="44.3844263" lon="11.4038148"><ele>134.8</ele><time>2026-04-11T08:41:01.241Z</time></trkpt><trkpt lat="44.384325" lon="11.4037687"><ele>135.2</ele><time>2026-04-11T08:41:03.242Z</time></trkpt><trkpt lat="44.3842143" lon="11.4037165"><ele>135.6</ele><time>2026-04-11T08:41:05.243Z</time></trkpt><trkpt lat="44.3841488" lon="11.4036868"><ele>136.0</ele><time>2026-04-11T08:41:06.244Z</time></trkpt><trkpt lat="44.3840757" lon="11.4036543"><ele>136.0</ele><time>2026-04-11T08:41:07.241Z</time></trkpt><trkpt lat="44.3839958" lon="11.4036165"><ele>136.0</ele><time>2026-04-11T08:41:08.244Z</time></trkpt><trkpt lat="44.3839247" lon="11.4035832"><ele>136.0</ele><time>2026-04-11T08:41:09.242Z</time></trkpt><trkpt lat="44.3838602" lon="11.4035553"><ele>136.0</ele><time>2026-04-11T08:41:10.243Z</time></trkpt><trkpt lat="44.3837567" lon="11.4035165"><ele>136.0</ele><time>2026-04-11T08:41:12.242Z</time></trkpt><trkpt lat="44.3836768" lon="11.4034947"><ele>136.0</ele><time>2026-04-11T08:41:14.242Z</time></trkpt><trkpt lat="44.3836123" lon="11.4034743"><ele>135.66666666666669</ele><time>2026-04-11T08:41:17.245Z</time></trkpt><trkpt lat="44.3835457" lon="11.4034323"><ele>135.33333333333334</ele><time>2026-04-11T08:42:19.243Z</time></trkpt><trkpt lat="44.3835453" lon="11.40332"><ele>135.0</ele><time>2026-04-11T08:42:22.241Z</time></trkpt><trkpt lat="44.3835898" lon="11.4031963"><ele>134.66666666666666</ele><time>2026-04-11T08:42:24.245Z</time></trkpt><trkpt lat="44.3836183" lon="11.4031087"><ele>134.33333333333331</ele><time>2026-04-11T08:42:25.243Z</time></trkpt><trkpt lat="44.3836458" lon="11.4030235"><ele>134.0</ele><time>2026-04-11T08:42:26.244Z</time></trkpt><trkpt lat="44.3836715" lon="11.4029367"><ele>133.66666666666666</ele><time>2026-04-11T08:42:27.243Z</time></trkpt><trkpt lat="44.3836993" lon="11.4028362"><ele>133.33333333333331</ele><time>2026-04-11T08:42:28.243Z</time></trkpt><trkpt lat="44.3837275" lon="11.4027298"><ele>133.0</ele><time>2026-04-11T08:42:29.244Z</time></trkpt><trkpt lat="44.3837557" lon="11.4026238"><ele>132.66666666666666</ele><time>2026-04-11T08:42:30.242Z</time></trkpt><trkpt lat="44.3837823" lon="11.4025252"><ele>132.33333333333334</ele><time>2026-04-11T08:42:31.244Z</time></trkpt><trkpt lat="44.3838098" lon="11.4024262"><ele>132.0</ele><time>2026-04-11T08:42:32.245Z</time></trkpt><trkpt lat="44.3838368" lon="11.4023382"><ele>133.33333333333334</ele><time>2026-04-11T08:42:33.241Z</time></trkpt><trkpt lat="44.383888" lon="11.4022155"><ele>134.66666666666666</ele><time>2026-04-11T08:42:35.239Z</time></trkpt><trkpt lat="44.3839555" lon="11.402182"><ele>136.0</ele><time>2026-04-11T08:42:37.239Z</time></trkpt><trkpt lat="44.3840415" lon="11.4022322"><ele>137.33333333333331</ele><time>2026-04-11T08:42:39.24Z</time></trkpt><trkpt lat="44.3840948" lon="11.4022825"><ele>138.66666666666666</ele><time>2026-04-11T08:42:40.241Z</time></trkpt><trkpt lat="44.3841577" lon="11.4023413"><ele>140.0</ele><time>2026-04-11T08:42:41.245Z</time></trkpt><trkpt lat="44.3842262" lon="11.4023927"><ele>140.0</ele><time>2026-04-11T08:42:42.244Z</time></trkpt><trkpt lat="44.3842983" lon="11.402438"><ele>140.0</ele><time>2026-04-11T08:42:43.245Z</time></trkpt><trkpt lat="44.3843653" lon="11.4024768"><ele>140.0</ele><time>2026-04-11T08:42:44.245Z</time></trkpt><trkpt lat="44.3844327" lon="11.4025165"><ele>140.0</ele><time>2026-04-11T08:42:45.246Z</time></trkpt><trkpt lat="44.3845033" lon="11.4025578"><ele>140.0</ele><time>2026-04-11T08:42:46.245Z</time></trkpt><trkpt lat="44.3845738" lon="11.4025953"><ele>140.0</ele><time>2026-04-11T08:42:47.245Z</time></trkpt><trkpt lat="44.3846342" lon="11.402626"><ele>140.0</ele><time>2026-04-11T08:42:48.246Z</time></trkpt><trkpt lat="44.3847352" lon="11.4026765"><ele>141.0</ele><time>2026-04-11T08:42:50.246Z</time></trkpt><trkpt lat="44.3848022" lon="11.4026838"><ele>142.0</ele><time>2026-04-11T08:42:52.248Z</time></trkpt><trkpt lat="44.3848615" lon="11.4026353"><ele>143.0</ele><time>2026-04-11T08:42:54.248Z</time></trkpt><trkpt lat="44.3849127" lon="11.4025152"><ele>144.0</ele><time>2026-04-11T08:42:56.245Z</time></trkpt><trkpt lat="44.3849547" lon="11.4023803"><ele>145.0</ele><time>2026-04-11T08:42:58.243Z</time></trkpt><trkpt lat="44.384993" lon="11.4022402"><ele>146.0</ele><time>2026-04-11T08:43:00.24Z</time></trkpt><trkpt lat="44.3850352" lon="11.4020985"><ele>148.83333333333331</ele><time>2026-04-11T08:43:02.243Z</time></trkpt><trkpt lat="44.385076" lon="11.4019747"><ele>151.66666666666666</ele><time>2026-04-11T08:43:04.245Z</time></trkpt><trkpt lat="44.3851142" lon="11.4018563"><ele>154.5</ele><time>2026-04-11T08:43:06.243Z</time></trkpt><trkpt lat="44.3851523" lon="11.4017427"><ele>157.33333333333334</ele><time>2026-04-11T08:43:08.245Z</time></trkpt><trkpt lat="44.3851785" lon="11.4016163"><ele>160.16666666666669</ele><time>2026-04-11T08:43:10.245Z</time></trkpt><trkpt lat="44.385213" lon="11.4015257"><ele>163.0</ele><time>2026-04-11T08:43:12.244Z</time></trkpt><trkpt lat="44.3852385" lon="11.4014213"><ele>165.0</ele><time>2026-04-11T08:43:14.246Z</time></trkpt><trkpt lat="44.3852613" lon="11.401315"><ele>167.0</ele><time>2026-04-11T08:43:16.244Z</time></trkpt><trkpt lat="44.385292" lon="11.4012212"><ele>169.0</ele><time>2026-04-11T08:43:18.246Z</time></trkpt><trkpt lat="44.3853207" lon="11.4011002"><ele>171.0</ele><time>2026-04-11T08:43:20.244Z</time></trkpt><trkpt lat="44.3853545" lon="11.4009867"><ele>173.0</ele><time>2026-04-11T08:43:22.244Z</time></trkpt><trkpt lat="44.3853962" lon="11.4008617"><ele>175.0</ele><time>2026-04-11T08:43:24.244Z</time></trkpt><trkpt lat="44.3854405" lon="11.4007382"><ele>175.0</ele><time>2026-04-11T08:43:26.242Z</time></trkpt><trkpt lat="44.3854907" lon="11.4006135"><ele>175.0</ele><time>2026-04-11T08:43:28.245Z</time></trkpt><trkpt lat="44.3855477" lon="11.4004972"><ele>175.0</ele><time>2026-04-11T08:43:30.245Z</time></trkpt><trkpt lat="44.3856101" lon="11.4003722"><ele>175.0</ele><time>2026-04-11T08:43:32.246Z</time></trkpt><trkpt lat="44.3856684" lon="11.400258"><ele>175.0</ele><time>2026-04-11T08:43:34.247Z</time></trkpt><trkpt lat="44.3857227" lon="11.4001659"><ele>180.6</ele><time>2026-04-11T08:43:36.246Z</time></trkpt><trkpt lat="44.3857995" lon="11.4001064"><ele>186.2</ele><time>2026-04-11T08:43:38.249Z</time></trkpt><trkpt lat="44.3858948" lon="11.4000493"><ele>191.8</ele><time>2026-04-11T08:43:40.246Z</time></trkpt><trkpt lat="44.3859843" lon="11.399999"><ele>197.4</ele><time>2026-04-11T08:43:42.245Z</time></trkpt><trkpt lat="44.3860671" lon="11.399947"><ele>203.0</ele><time>2026-04-11T08:43:44.248Z</time></trkpt><trkpt lat="44.3861495" lon="11.3998799"><ele>203.00000000000003</ele><time>2026-04-11T08:43:46.247Z</time></trkpt><trkpt lat="44.3862213" lon="11.3997846"><ele>203.0</ele><time>2026-04-11T08:43:48.244Z</time></trkpt><trkpt lat="44.3862738" lon="11.3996829"><ele>203.0</ele><time>2026-04-11T08:43:50.245Z</time></trkpt><trkpt lat="44.3863105" lon="11.3995986"><ele>203.0</ele><time>2026-04-11T08:43:52.245Z</time></trkpt><trkpt lat="44.3863323" lon="11.3995127"><ele>203.00000000000003</ele><time>2026-04-11T08:43:54.245Z</time></trkpt><trkpt lat="44.3863482" lon="11.3994094"><ele>203.0</ele><time>2026-04-11T08:43:56.247Z</time></trkpt><trkpt lat="44.3863658" lon="11.3992775"><ele>205.66666666666669</ele><time>2026-04-11T08:43:58.247Z</time></trkpt><trkpt lat="44.3863837" lon="11.399127"><ele>208.33333333333334</ele><time>2026-04-11T08:44:00.246Z</time></trkpt><trkpt lat="44.3863902" lon="11.3989662"><ele>211.0</ele><time>2026-04-11T08:44:02.246Z</time></trkpt><trkpt lat="44.3863838" lon="11.3988709"><ele>213.66666666666669</ele><time>2026-04-11T08:44:03.247Z</time></trkpt><trkpt lat="44.3863716" lon="11.3987668"><ele>216.33333333333334</ele><time>2026-04-11T08:44:04.245Z</time></trkpt><trkpt lat="44.3863561" lon="11.398671"><ele>219.0</ele><time>2026-04-11T08:44:05.248Z</time></trkpt><trkpt lat="44.386339" lon="11.3985784"><ele>219.0</ele><time>2026-04-11T08:44:07.247Z</time></trkpt><trkpt lat="44.3863383" lon="11.3984625"><ele>218.99999999999997</ele><time>2026-04-11T08:44:26.249Z</time></trkpt><trkpt lat="44.3863232" lon="11.3983243"><ele>218.99999999999997</ele><time>2026-04-11T08:44:28.246Z</time></trkpt><trkpt lat="44.3862917" lon="11.398153"><ele>219.0</ele><time>2026-04-11T08:44:30.245Z</time></trkpt><trkpt lat="44.386266" lon="11.3980027"><ele>219.0</ele><time>2026-04-11T08:44:32.246Z</time></trkpt><trkpt lat="44.3862615" lon="11.397816"><ele>220.57142857142858</ele><time>2026-04-11T08:44:34.244Z</time></trkpt><trkpt lat="44.3862702" lon="11.3977172"><ele>222.1428571428571</ele><time>2026-04-11T08:44:35.246Z</time></trkpt><trkpt lat="44.3862868" lon="11.3976137"><ele>223.7142857142857</ele><time>2026-04-11T08:44:36.245Z</time></trkpt><trkpt lat="44.3863068" lon="11.397508"><ele>225.28571428571428</ele><time>2026-04-11T08:44:37.242Z</time></trkpt><trkpt lat="44.3863253" lon="11.3974062"><ele>226.85714285714283</ele><time>2026-04-11T08:44:38.242Z</time></trkpt><trkpt lat="44.3863357" lon="11.3973083"><ele>228.4285714285714</ele><time>2026-04-11T08:44:39.243Z</time></trkpt><trkpt lat="44.3863325" lon="11.3972112"><ele>229.99999999999997</ele><time>2026-04-11T08:44:40.244Z</time></trkpt><trkpt lat="44.386317" lon="11.3971112"><ele>232.33333333333334</ele><time>2026-04-11T08:44:41.247Z</time></trkpt><trkpt lat="44.3862968" lon="11.3970032"><ele>234.66666666666669</ele><time>2026-04-11T08:44:42.246Z</time></trkpt><trkpt lat="44.3862783" lon="11.3968968"><ele>237.0</ele><time>2026-04-11T08:44:43.245Z</time></trkpt><trkpt lat="44.3862625" lon="11.3967928"><ele>239.33333333333331</ele><time>2026-04-11T08:44:44.246Z</time></trkpt><trkpt lat="44.3862492" lon="11.3966477"><ele>241.66666666666666</ele><time>2026-04-11T08:44:46.249Z</time></trkpt><trkpt lat="44.3862677" lon="11.3965465"><ele>244.0</ele><time>2026-04-11T08:44:49.229Z</time></trkpt><trkpt lat="44.3861942" lon="11.3964917"><ele>244.0</ele><time>2026-04-11T08:44:54.246Z</time></trkpt><trkpt lat="44.386128" lon="11.396432"><ele>243.99999999999997</ele><time>2026-04-11T08:44:56.249Z</time></trkpt><trkpt lat="44.3860512" lon="11.3963477"><ele>243.99999999999997</ele><time>2026-04-11T08:44:58.246Z</time></trkpt><trkpt lat="44.3859653" lon="11.3962548"><ele>244.0</ele><time>2026-04-11T08:45:00.245Z</time></trkpt><trkpt lat="44.3858655" lon="11.396156"><ele>244.0</ele><time>2026-04-11T08:45:02.242Z</time></trkpt><trkpt lat="44.3857703" lon="11.396062"><ele>243.71428571428567</ele><time>2026-04-11T08:45:04.244Z</time></trkpt><trkpt lat="44.385677" lon="11.395975"><ele>243.42857142857142</ele><time>2026-04-11T08:45:06.245Z</time></trkpt><trkpt lat="44.3856163" lon="11.3959385"><ele>243.1428571428571</ele><time>2026-04-11T08:45:07.246Z</time></trkpt><trkpt lat="44.3855497" lon="11.3959083"><ele>242.85714285714283</ele><time>2026-04-11T08:45:08.249Z</time></trkpt><trkpt lat="44.385487" lon="11.3958838"><ele>242.57142857142856</ele><time>2026-04-11T08:45:09.246Z</time></trkpt><trkpt lat="44.3854243" lon="11.3958615"><ele>242.28571428571428</ele><time>2026-04-11T08:45:10.245Z</time></trkpt><trkpt lat="44.385359" lon="11.3958483"><ele>242.0</ele><time>2026-04-11T08:45:11.246Z</time></trkpt><trkpt lat="44.3852902" lon="11.3958362"><ele>242.00000000000003</ele><time>2026-04-11T08:45:12.245Z</time></trkpt><trkpt lat="44.3852157" lon="11.3958298"><ele>242.0</ele><time>2026-04-11T08:45:13.246Z</time></trkpt><trkpt lat="44.3851343" lon="11.3958232"><ele>242.0</ele><time>2026-04-11T08:45:14.248Z</time></trkpt><trkpt lat="44.3850487" lon="11.3958033"><ele>242.0</ele><time>2026-04-11T08:45:15.246Z</time></trkpt><trkpt lat="44.3849598" lon="11.3957778"><ele>242.00000000000003</ele><time>2026-04-11T08:45:16.247Z</time></trkpt><trkpt lat="44.3848775" lon="11.3957595"><ele>242.0</ele><time>2026-04-11T08:45:17.246Z</time></trkpt><trkpt lat="44.3847992" lon="11.3957427"><ele>242.00000000000003</ele><time>2026-04-11T08:45:18.246Z</time></trkpt><trkpt lat="44.3847317" lon="11.3957163"><ele>242.0</ele><time>2026-04-11T08:45:19.245Z</time></trkpt><trkpt lat="44.3846375" lon="11.3956257"><ele>242.0</ele><time>2026-04-11T08:45:21.247Z</time></trkpt><trkpt lat="44.3845927" lon="11.3955437"><ele>242.0</ele><time>2026-04-11T08:45:23.247Z</time></trkpt><trkpt lat="44.3845457" lon="11.3954397"><ele>242.00000000000003</ele><time>2026-04-11T08:45:25.252Z</time></trkpt><trkpt lat="44.3845075" lon="11.395326"><ele>242.0</ele><time>2026-04-11T08:45:27.248Z</time></trkpt><trkpt lat="44.3844565" lon="11.3952045"><ele>240.66666666666669</ele><time>2026-04-11T08:45:29.246Z</time></trkpt><trkpt lat="44.384418" lon="11.39513"><ele>239.33333333333334</ele><time>2026-04-11T08:45:30.247Z</time></trkpt><trkpt lat="44.3843558" lon="11.3949863"><ele>238.0</ele><time>2026-04-11T08:45:32.249Z</time></trkpt><trkpt lat="44.3843168" lon="11.3949078"><ele>236.66666666666669</ele><time>2026-04-11T08:45:33.246Z</time></trkpt><trkpt lat="44.3842683" lon="11.3948277"><ele>235.33333333333334</ele><time>2026-04-11T08:45:34.246Z</time></trkpt><trkpt lat="44.384212" lon="11.3947518"><ele>234.0</ele><time>2026-04-11T08:45:35.248Z</time></trkpt><trkpt lat="44.3841583" lon="11.3946868"><ele>234.39999999999998</ele><time>2026-04-11T08:45:36.25Z</time></trkpt><trkpt lat="44.3840733" lon="11.3945708"><ele>234.79999999999998</ele><time>2026-04-11T08:45:38.248Z</time></trkpt><trkpt lat="44.3840097" lon="11.3944557"><ele>235.20000000000002</ele><time>2026-04-11T08:45:40.247Z</time></trkpt><trkpt lat="44.3839202" lon="11.3943668"><ele>235.60000000000002</ele><time>2026-04-11T08:45:42.246Z</time></trkpt><trkpt lat="44.3838595" lon="11.394334"><ele>236.0</ele><time>2026-04-11T08:45:43.249Z</time></trkpt><trkpt lat="44.3837902" lon="11.3943048"><ele>236.0</ele><time>2026-04-11T08:45:44.248Z</time></trkpt><trkpt lat="44.3837212" lon="11.394279"><ele>236.00000000000003</ele><time>2026-04-11T08:45:45.246Z</time></trkpt><trkpt lat="44.3836555" lon="11.3942478"><ele>236.00000000000003</ele><time>2026-04-11T08:45:46.245Z</time></trkpt><trkpt lat="44.3835547" lon="11.3941667"><ele>236.0</ele><time>2026-04-11T08:45:48.245Z</time></trkpt><trkpt lat="44.3834815" lon="11.3940572"><ele>236.0</ele><time>2026-04-11T08:45:50.244Z</time></trkpt><trkpt lat="44.3834107" lon="11.3939295"><ele>236.0</ele><time>2026-04-11T08:45:52.245Z</time></trkpt><trkpt lat="44.3833747" lon="11.393854"><ele>236.0</ele><time>2026-04-11T08:45:53.244Z</time></trkpt><trkpt lat="44.3833377" lon="11.3937707"><ele>236.0</ele><time>2026-04-11T08:45:54.245Z</time></trkpt><trkpt lat="44.3832985" lon="11.3936968"><ele>236.0</ele><time>2026-04-11T08:45:55.245Z</time></trkpt><trkpt lat="44.3832542" lon="11.3936283"><ele>236.0</ele><time>2026-04-11T08:45:56.244Z</time></trkpt><trkpt lat="44.3832008" lon="11.3935688"><ele>236.0</ele><time>2026-04-11T08:45:57.246Z</time></trkpt><trkpt lat="44.383145" lon="11.3935208"><ele>236.0</ele><time>2026-04-11T08:45:58.245Z</time></trkpt><trkpt lat="44.3830277" lon="11.3934543"><ele>237.57142857142856</ele><time>2026-04-11T08:46:00.244Z</time></trkpt><trkpt lat="44.3829612" lon="11.3934425"><ele>239.14285714285717</ele><time>2026-04-11T08:46:01.245Z</time></trkpt><trkpt lat="44.3828882" lon="11.3934477"><ele>240.71428571428572</ele><time>2026-04-11T08:46:02.245Z</time></trkpt><trkpt lat="44.3828163" lon="11.393456"><ele>242.28571428571428</ele><time>2026-04-11T08:46:03.249Z</time></trkpt><trkpt lat="44.3827467" lon="11.3934573"><ele>243.85714285714283</ele><time>2026-04-11T08:46:04.245Z</time></trkpt><trkpt lat="44.3826725" lon="11.3934477"><ele>245.42857142857144</ele><time>2026-04-11T08:46:05.245Z</time></trkpt><trkpt lat="44.3826035" lon="11.393422"><ele>247.0</ele><time>2026-04-11T08:46:06.245Z</time></trkpt><trkpt lat="44.3825435" lon="11.3933952"><ele>246.99999999999997</ele><time>2026-04-11T08:46:07.248Z</time></trkpt><trkpt lat="44.3824138" lon="11.3933702"><ele>247.0</ele><time>2026-04-11T08:46:09.247Z</time></trkpt><trkpt lat="44.3823363" lon="11.3933572"><ele>247.0</ele><time>2026-04-11T08:46:10.246Z</time></trkpt><trkpt lat="44.3822597" lon="11.3933295"><ele>247.0</ele><time>2026-04-11T08:46:11.248Z</time></trkpt><trkpt lat="44.3821868" lon="11.3932922"><ele>246.99999999999997</ele><time>2026-04-11T08:46:12.246Z</time></trkpt><trkpt lat="44.3821163" lon="11.3932462"><ele>247.0</ele><time>2026-04-11T08:46:13.246Z</time></trkpt><trkpt lat="44.3820432" lon="11.3931943"><ele>245.66666666666666</ele><time>2026-04-11T08:46:14.246Z</time></trkpt><trkpt lat="44.3819715" lon="11.3931485"><ele>244.33333333333331</ele><time>2026-04-11T08:46:15.244Z</time></trkpt><trkpt lat="44.3818983" lon="11.3931148"><ele>243.0</ele><time>2026-04-11T08:46:16.244Z</time></trkpt><trkpt lat="44.3818283" lon="11.3930943"><ele>241.66666666666669</ele><time>2026-04-11T08:46:17.248Z</time></trkpt><trkpt lat="44.381757" lon="11.3930677"><ele>240.33333333333334</ele><time>2026-04-11T08:46:18.243Z</time></trkpt><trkpt lat="44.3816908" lon="11.3930222"><ele>239.0</ele><time>2026-04-11T08:46:19.247Z</time></trkpt><trkpt lat="44.3816215" lon="11.3929573"><ele>239.00000000000003</ele><time>2026-04-11T08:46:20.246Z</time></trkpt><trkpt lat="44.3815528" lon="11.3928882"><ele>239.0</ele><time>2026-04-11T08:46:21.248Z</time></trkpt><trkpt lat="44.3814857" lon="11.3928153"><ele>239.0</ele><time>2026-04-11T08:46:22.247Z</time></trkpt><trkpt lat="44.381418" lon="11.392747"><ele>239.0</ele><time>2026-04-11T08:46:23.249Z</time></trkpt><trkpt lat="44.381346" lon="11.3926875"><ele>239.00000000000003</ele><time>2026-04-11T08:46:24.248Z</time></trkpt><trkpt lat="44.3812723" lon="11.3926417"><ele>239.0</ele><time>2026-04-11T08:46:25.245Z</time></trkpt><trkpt lat="44.3811988" lon="11.3926083"><ele>239.14285714285717</ele><time>2026-04-11T08:46:26.246Z</time></trkpt><trkpt lat="44.3811322" lon="11.3925875"><ele>239.28571428571428</ele><time>2026-04-11T08:46:27.246Z</time></trkpt><trkpt lat="44.3810695" lon="11.392561"><ele>239.42857142857144</ele><time>2026-04-11T08:46:28.247Z</time></trkpt><trkpt lat="44.381009" lon="11.3925198"><ele>239.57142857142858</ele><time>2026-04-11T08:46:29.245Z</time></trkpt><trkpt lat="44.3809493" lon="11.392464"><ele>239.71428571428572</ele><time>2026-04-11T08:46:30.249Z</time></trkpt><trkpt lat="44.3808888" lon="11.3923972"><ele>239.85714285714286</ele><time>2026-04-11T08:46:31.248Z</time></trkpt><trkpt lat="44.3808275" lon="11.3923288"><ele>240.0</ele><time>2026-04-11T08:46:32.247Z</time></trkpt><trkpt lat="44.380759" lon="11.3922583"><ele>240.0</ele><time>2026-04-11T08:46:33.248Z</time></trkpt><trkpt lat="44.3806903" lon="11.3921942"><ele>240.0</ele><time>2026-04-11T08:46:34.247Z</time></trkpt><trkpt lat="44.3806235" lon="11.3921332"><ele>240.0</ele><time>2026-04-11T08:46:35.246Z</time></trkpt><trkpt lat="44.3805608" lon="11.3920757"><ele>240.0</ele><time>2026-04-11T08:46:36.248Z</time></trkpt><trkpt lat="44.3804985" lon="11.3920268"><ele>240.0</ele><time>2026-04-11T08:46:37.247Z</time></trkpt><trkpt lat="44.380434" lon="11.3919857"><ele>240.0</ele><time>2026-04-11T08:46:38.247Z</time></trkpt><trkpt lat="44.3803678" lon="11.3919558"><ele>240.0</ele><time>2026-04-11T08:46:39.244Z</time></trkpt><trkpt lat="44.3802968" lon="11.3919362"><ele>241.16666666666666</ele><time>2026-04-11T08:46:40.248Z</time></trkpt><trkpt lat="44.380223" lon="11.391924"><ele>242.33333333333331</ele><time>2026-04-11T08:46:41.245Z</time></trkpt><trkpt lat="44.3801503" lon="11.3919103"><ele>243.5</ele><time>2026-04-11T08:46:42.244Z</time></trkpt><trkpt lat="44.3800707" lon="11.3918963"><ele>244.66666666666666</ele><time>2026-04-11T08:46:43.247Z</time></trkpt><trkpt lat="44.3799945" lon="11.3918835"><ele>245.83333333333331</ele><time>2026-04-11T08:46:44.248Z</time></trkpt><trkpt lat="44.3799222" lon="11.3918668"><ele>247.0</ele><time>2026-04-11T08:46:45.247Z</time></trkpt><trkpt lat="44.3798513" lon="11.3918442"><ele>246.99999999999997</ele><time>2026-04-11T08:46:46.245Z</time></trkpt><trkpt lat="44.3797788" lon="11.3918093"><ele>247.0</ele><time>2026-04-11T08:46:47.248Z</time></trkpt><trkpt lat="44.3796987" lon="11.3917677"><ele>247.0</ele><time>2026-04-11T08:46:48.247Z</time></trkpt><trkpt lat="44.379627" lon="11.3917355"><ele>247.0</ele><time>2026-04-11T08:46:49.246Z</time></trkpt><trkpt lat="44.3795622" lon="11.3917158"><ele>246.99999999999997</ele><time>2026-04-11T08:46:50.247Z</time></trkpt><trkpt lat="44.3794928" lon="11.3917045"><ele>247.0</ele><time>2026-04-11T08:46:51.248Z</time></trkpt><trkpt lat="44.3793773" lon="11.3916953"><ele>248.66666666666666</ele><time>2026-04-11T08:46:53.249Z</time></trkpt><trkpt lat="44.3792972" lon="11.391693"><ele>250.33333333333331</ele><time>2026-04-11T08:46:55.247Z</time></trkpt><trkpt lat="44.3792117" lon="11.3917335"><ele>252.0</ele><time>2026-04-11T08:46:57.246Z</time></trkpt><trkpt lat="44.3791228" lon="11.3918267"><ele>253.66666666666669</ele><time>2026-04-11T08:46:59.247Z</time></trkpt><trkpt lat="44.3790715" lon="11.3918933"><ele>255.33333333333334</ele><time>2026-04-11T08:47:00.249Z</time></trkpt><trkpt lat="44.3790197" lon="11.3919568"><ele>257.0</ele><time>2026-04-11T08:47:01.246Z</time></trkpt><trkpt lat="44.3789632" lon="11.3920188"><ele>257.0</ele><time>2026-04-11T08:47:02.247Z</time></trkpt><trkpt lat="44.3789057" lon="11.3920732"><ele>257.0</ele><time>2026-04-11T08:47:03.246Z</time></trkpt><trkpt lat="44.3788518" lon="11.3921195"><ele>257.0</ele><time>2026-04-11T08:47:04.247Z</time></trkpt><trkpt lat="44.3787992" lon="11.3921717"><ele>257.0</ele><time>2026-04-11T08:47:05.245Z</time></trkpt><trkpt lat="44.378748" lon="11.392239"><ele>257.0</ele><time>2026-04-11T08:47:06.243Z</time></trkpt><trkpt lat="44.378698" lon="11.3923298"><ele>257.0</ele><time>2026-04-11T08:47:07.245Z</time></trkpt><trkpt lat="44.3786512" lon="11.3924307"><ele>257.0</ele><time>2026-04-11T08:47:08.247Z</time></trkpt><trkpt lat="44.3786102" lon="11.392536"><ele>257.1428571428571</ele><time>2026-04-11T08:47:09.246Z</time></trkpt><trkpt lat="44.378575" lon="11.3926315"><ele>257.2857142857143</ele><time>2026-04-11T08:47:10.245Z</time></trkpt><trkpt lat="44.3785375" lon="11.3927157"><ele>257.42857142857144</ele><time>2026-04-11T08:47:11.246Z</time></trkpt><trkpt lat="44.3784945" lon="11.3927963"><ele>257.57142857142856</ele><time>2026-04-11T08:47:12.247Z</time></trkpt><trkpt lat="44.3784505" lon="11.3928765"><ele>257.7142857142857</ele><time>2026-04-11T08:47:13.248Z</time></trkpt><trkpt lat="44.3784088" lon="11.3929535"><ele>257.85714285714283</ele><time>2026-04-11T08:47:14.247Z</time></trkpt><trkpt lat="44.378366" lon="11.3930293"><ele>258.0</ele><time>2026-04-11T08:47:15.248Z</time></trkpt><trkpt lat="44.3782802" lon="11.3931252"><ele>258.3333333333333</ele><time>2026-04-11T08:47:17.247Z</time></trkpt><trkpt lat="44.378187" lon="11.3931462"><ele>258.6666666666667</ele><time>2026-04-11T08:47:19.247Z</time></trkpt><trkpt lat="44.3780733" lon="11.3931297"><ele>259.0</ele><time>2026-04-11T08:47:21.246Z</time></trkpt><trkpt lat="44.3780037" lon="11.3931148"><ele>259.33333333333337</ele><time>2026-04-11T08:47:22.247Z</time></trkpt><trkpt lat="44.3779277" lon="11.3931088"><ele>259.6666666666667</ele><time>2026-04-11T08:47:23.249Z</time></trkpt><trkpt lat="44.3778503" lon="11.3931098"><ele>260.0</ele><time>2026-04-11T08:47:24.248Z</time></trkpt><trkpt lat="44.3777712" lon="11.3931127"><ele>260.0</ele><time>2026-04-11T08:47:25.248Z</time></trkpt><trkpt lat="44.3776917" lon="11.393116"><ele>260.0</ele><time>2026-04-11T08:47:26.247Z</time></trkpt><trkpt lat="44.3776098" lon="11.3931173"><ele>260.0</ele><time>2026-04-11T08:47:27.246Z</time></trkpt><trkpt lat="44.3775308" lon="11.3931162"><ele>260.0</ele><time>2026-04-11T08:47:28.25Z</time></trkpt><trkpt lat="44.3774537" lon="11.3931137"><ele>260.0</ele><time>2026-04-11T08:47:29.246Z</time></trkpt><trkpt lat="44.3773675" lon="11.3931118"><ele>260.0</ele><time>2026-04-11T08:47:30.245Z</time></trkpt><trkpt lat="44.3772788" lon="11.3931115"><ele>258.6</ele><time>2026-04-11T08:47:31.247Z</time></trkpt><trkpt lat="44.3771853" lon="11.3931135"><ele>257.2</ele><time>2026-04-11T08:47:32.25Z</time></trkpt><trkpt lat="44.377084" lon="11.3931172"><ele>255.8</ele><time>2026-04-11T08:47:33.249Z</time></trkpt><trkpt lat="44.3769858" lon="11.393121"><ele>254.4</ele><time>2026-04-11T08:47:34.249Z</time></trkpt><trkpt lat="44.3768943" lon="11.3931245"><ele>253.0</ele><time>2026-04-11T08:47:35.249Z</time></trkpt><trkpt lat="44.3768048" lon="11.393125"><ele>252.99999999999997</ele><time>2026-04-11T08:47:36.249Z</time></trkpt><trkpt lat="44.3767212" lon="11.3931222"><ele>253.0</ele><time>2026-04-11T08:47:37.246Z</time></trkpt><trkpt lat="44.3766423" lon="11.3931247"><ele>253.0</ele><time>2026-04-11T08:47:38.249Z</time></trkpt><trkpt lat="44.3765632" lon="11.3931353"><ele>253.0</ele><time>2026-04-11T08:47:39.249Z</time></trkpt><trkpt lat="44.3764818" lon="11.393146"><ele>252.99999999999997</ele><time>2026-04-11T08:47:40.246Z</time></trkpt><trkpt lat="44.3763967" lon="11.3931473"><ele>253.0</ele><time>2026-04-11T08:47:41.246Z</time></trkpt><trkpt lat="44.3763157" lon="11.3931407"><ele>252.8</ele><time>2026-04-11T08:47:42.246Z</time></trkpt><trkpt lat="44.3762293" lon="11.393131"><ele>252.60000000000002</ele><time>2026-04-11T08:47:43.246Z</time></trkpt><trkpt lat="44.3761423" lon="11.3931272"><ele>252.39999999999998</ele><time>2026-04-11T08:47:44.248Z</time></trkpt><trkpt lat="44.3760445" lon="11.3931343"><ele>252.2</ele><time>2026-04-11T08:47:45.248Z</time></trkpt><trkpt lat="44.3759505" lon="11.3931598"><ele>252.0</ele><time>2026-04-11T08:47:46.247Z</time></trkpt><trkpt lat="44.3758617" lon="11.3932047"><ele>252.0</ele><time>2026-04-11T08:47:47.247Z</time></trkpt><trkpt lat="44.375777" lon="11.3932555"><ele>252.0</ele><time>2026-04-11T08:47:48.247Z</time></trkpt><trkpt lat="44.3757" lon="11.3933023"><ele>252.0</ele><time>2026-04-11T08:47:49.247Z</time></trkpt><trkpt lat="44.3756225" lon="11.393343"><ele>252.0</ele><time>2026-04-11T08:47:50.246Z</time></trkpt><trkpt lat="44.3755448" lon="11.3933735"><ele>252.0</ele><time>2026-04-11T08:47:51.246Z</time></trkpt><trkpt lat="44.3754695" lon="11.3933898"><ele>252.0</ele><time>2026-04-11T08:47:52.245Z</time></trkpt><trkpt lat="44.375392" lon="11.3933877"><ele>251.66666666666666</ele><time>2026-04-11T08:47:53.246Z</time></trkpt><trkpt lat="44.3753162" lon="11.3933735"><ele>251.33333333333331</ele><time>2026-04-11T08:47:54.246Z</time></trkpt><trkpt lat="44.3752408" lon="11.393355"><ele>251.0</ele><time>2026-04-11T08:47:55.246Z</time></trkpt><trkpt lat="44.3751682" lon="11.3933315"><ele>250.66666666666666</ele><time>2026-04-11T08:47:56.247Z</time></trkpt><trkpt lat="44.3750945" lon="11.3932987"><ele>250.33333333333331</ele><time>2026-04-11T08:47:57.246Z</time></trkpt><trkpt lat="44.3750242" lon="11.3932612"><ele>250.0</ele><time>2026-04-11T08:47:58.248Z</time></trkpt><trkpt lat="44.3749562" lon="11.3932273"><ele>249.99999999999997</ele><time>2026-04-11T08:47:59.246Z</time></trkpt><trkpt lat="44.3748842" lon="11.3932032"><ele>250.0</ele><time>2026-04-11T08:48:00.246Z</time></trkpt><trkpt lat="44.3748087" lon="11.3931895"><ele>250.0</ele><time>2026-04-11T08:48:01.246Z</time></trkpt><trkpt lat="44.3747315" lon="11.3931775"><ele>250.0</ele><time>2026-04-11T08:48:02.247Z</time></trkpt><trkpt lat="44.3746502" lon="11.3931682"><ele>249.99999999999997</ele><time>2026-04-11T08:48:03.248Z</time></trkpt><trkpt lat="44.3745668" lon="11.393162"><ele>250.0</ele><time>2026-04-11T08:48:04.248Z</time></trkpt><trkpt lat="44.3744855" lon="11.393157"><ele>251.16666666666666</ele><time>2026-04-11T08:48:05.247Z</time></trkpt><trkpt lat="44.3743975" lon="11.3931545"><ele>252.33333333333331</ele><time>2026-04-11T08:48:06.247Z</time></trkpt><trkpt lat="44.3743142" lon="11.3931478"><ele>253.5</ele><time>2026-04-11T08:48:07.247Z</time></trkpt><trkpt lat="44.374235" lon="11.3931358"><ele>254.66666666666669</ele><time>2026-04-11T08:48:08.249Z</time></trkpt><trkpt lat="44.3741627" lon="11.393118"><ele>255.83333333333334</ele><time>2026-04-11T08:48:09.247Z</time></trkpt><trkpt lat="44.3741017" lon="11.3930952"><ele>257.0</ele><time>2026-04-11T08:48:10.246Z</time></trkpt><trkpt lat="44.3740068" lon="11.3930447"><ele>256.33333333333337</ele><time>2026-04-11T08:48:12.247Z</time></trkpt><trkpt lat="44.3739197" lon="11.392989"><ele>255.66666666666669</ele><time>2026-04-11T08:48:15.246Z</time></trkpt><trkpt lat="44.3738432" lon="11.39295"><ele>255.0</ele><time>2026-04-11T08:48:17.244Z</time></trkpt><trkpt lat="44.3737663" lon="11.3929713"><ele>254.33333333333331</ele><time>2026-04-11T08:48:19.244Z</time></trkpt><trkpt lat="44.3736625" lon="11.3930657"><ele>253.66666666666666</ele><time>2026-04-11T08:48:21.246Z</time></trkpt><trkpt lat="44.3736077" lon="11.3931165"><ele>253.0</ele><time>2026-04-11T08:48:22.246Z</time></trkpt><trkpt lat="44.3735043" lon="11.3931627"><ele>255.83333333333331</ele><time>2026-04-11T08:48:24.249Z</time></trkpt><trkpt lat="44.3734397" lon="11.3931568"><ele>258.66666666666663</ele><time>2026-04-11T08:48:25.248Z</time></trkpt><trkpt lat="44.3733707" lon="11.3931438"><ele>261.5</ele><time>2026-04-11T08:48:26.248Z</time></trkpt><trkpt lat="44.3732958" lon="11.3931212"><ele>264.3333333333333</ele><time>2026-04-11T08:48:27.249Z</time></trkpt><trkpt lat="44.3732165" lon="11.3930918"><ele>267.1666666666667</ele><time>2026-04-11T08:48:28.248Z</time></trkpt><trkpt lat="44.3731363" lon="11.393064"><ele>270.0</ele><time>2026-04-11T08:48:29.248Z</time></trkpt><trkpt lat="44.3730547" lon="11.3930368"><ele>273.6666666666667</ele><time>2026-04-11T08:48:30.246Z</time></trkpt><trkpt lat="44.3729733" lon="11.393013"><ele>277.3333333333333</ele><time>2026-04-11T08:48:31.246Z</time></trkpt><trkpt lat="44.372889" lon="11.392987"><ele>281.0</ele><time>2026-04-11T08:48:32.248Z</time></trkpt><trkpt lat="44.3728087" lon="11.3929585"><ele>284.66666666666663</ele><time>2026-04-11T08:48:33.246Z</time></trkpt><trkpt lat="44.3727272" lon="11.3929243"><ele>288.3333333333333</ele><time>2026-04-11T08:48:34.247Z</time></trkpt><trkpt lat="44.3726425" lon="11.392886"><ele>292.0</ele><time>2026-04-11T08:48:35.248Z</time></trkpt><trkpt lat="44.3725553" lon="11.3928507"><ele>294.0</ele><time>2026-04-11T08:48:36.247Z</time></trkpt><trkpt lat="44.3724647" lon="11.3928212"><ele>296.0</ele><time>2026-04-11T08:48:37.247Z</time></trkpt><trkpt lat="44.3723757" lon="11.3928008"><ele>298.0</ele><time>2026-04-11T08:48:38.247Z</time></trkpt><trkpt lat="44.3722858" lon="11.3927888"><ele>300.0</ele><time>2026-04-11T08:48:39.247Z</time></trkpt><trkpt lat="44.3722017" lon="11.3927932"><ele>302.0</ele><time>2026-04-11T08:48:40.247Z</time></trkpt><trkpt lat="44.3721268" lon="11.39282"><ele>304.0</ele><time>2026-04-11T08:48:41.247Z</time></trkpt><trkpt lat="44.3720593" lon="11.3928632"><ele>305.0</ele><time>2026-04-11T08:48:42.246Z</time></trkpt><trkpt lat="44.3720013" lon="11.3929257"><ele>306.0</ele><time>2026-04-11T08:48:43.245Z</time></trkpt><trkpt lat="44.3719512" lon="11.3930012"><ele>307.0</ele><time>2026-04-11T08:48:44.244Z</time></trkpt><trkpt lat="44.371903" lon="11.3930705"><ele>308.0</ele><time>2026-04-11T08:48:45.246Z</time></trkpt><trkpt lat="44.3718567" lon="11.3931305"><ele>309.0</ele><time>2026-04-11T08:48:46.245Z</time></trkpt><trkpt lat="44.3718052" lon="11.3931858"><ele>310.0</ele><time>2026-04-11T08:48:47.247Z</time></trkpt><trkpt lat="44.3717483" lon="11.3932343"><ele>311.0</ele><time>2026-04-11T08:48:48.247Z</time></trkpt><trkpt lat="44.3716887" lon="11.3932787"><ele>311.1666666666667</ele><time>2026-04-11T08:48:49.249Z</time></trkpt><trkpt lat="44.3716052" lon="11.3933125"><ele>311.33333333333337</ele><time>2026-04-11T08:48:51.248Z</time></trkpt><trkpt lat="44.3715227" lon="11.3933062"><ele>311.5</ele><time>2026-04-11T08:48:54.247Z</time></trkpt><trkpt lat="44.371455" lon="11.393291"><ele>311.6666666666667</ele><time>2026-04-11T08:48:57.247Z</time></trkpt><trkpt lat="44.3713785" lon="11.393227"><ele>311.8333333333333</ele><time>2026-04-11T08:49:01.246Z</time></trkpt><trkpt lat="44.3712955" lon="11.3931993"><ele>312.0</ele><time>2026-04-11T08:49:04.246Z</time></trkpt><trkpt lat="44.3712233" lon="11.3931928"><ele>312.2</ele><time>2026-04-11T08:49:06.245Z</time></trkpt><trkpt lat="44.3711277" lon="11.3931902"><ele>312.4</ele><time>2026-04-11T08:49:08.245Z</time></trkpt><trkpt lat="44.3710312" lon="11.3931915"><ele>312.6</ele><time>2026-04-11T08:49:10.246Z</time></trkpt><trkpt lat="44.3709418" lon="11.3931967"><ele>312.8</ele><time>2026-04-11T08:49:12.247Z</time></trkpt><trkpt lat="44.3708547" lon="11.3932122"><ele>313.0</ele><time>2026-04-11T08:49:14.247Z</time></trkpt><trkpt lat="44.370758" lon="11.3932137"><ele>313.0</ele><time>2026-04-11T08:49:16.248Z</time></trkpt><trkpt lat="44.3706367" lon="11.3932467"><ele>313.0</ele><time>2026-04-11T08:49:18.247Z</time></trkpt><trkpt lat="44.3705717" lon="11.3932803"><ele>313.0</ele><time>2026-04-11T08:49:19.249Z</time></trkpt><trkpt lat="44.3704738" lon="11.393346"><ele>313.0</ele><time>2026-04-11T08:49:21.247Z</time></trkpt><trkpt lat="44.3704063" lon="11.3933992"><ele>313.0</ele><time>2026-04-11T08:49:23.247Z</time></trkpt><trkpt lat="44.3703477" lon="11.3934475"><ele>313.0</ele><time>2026-04-11T08:49:26.247Z</time></trkpt><trkpt lat="44.3702785" lon="11.3935083"><ele>312.16666666666663</ele><time>2026-04-11T08:49:34.245Z</time></trkpt><trkpt lat="44.3702147" lon="11.3935505"><ele>311.3333333333333</ele><time>2026-04-11T08:49:36.247Z</time></trkpt><trkpt lat="44.3701413" lon="11.3935762"><ele>310.5</ele><time>2026-04-11T08:49:38.247Z</time></trkpt><trkpt lat="44.3700515" lon="11.393598"><ele>309.6666666666667</ele><time>2026-04-11T08:49:40.246Z</time></trkpt><trkpt lat="44.3699567" lon="11.3936263"><ele>308.83333333333337</ele><time>2026-04-11T08:49:42.248Z</time></trkpt><trkpt lat="44.3698677" lon="11.3936593"><ele>308.0</ele><time>2026-04-11T08:49:44.247Z</time></trkpt><trkpt lat="44.3697922" lon="11.3936845"><ele>308.0</ele><time>2026-04-11T08:49:46.246Z</time></trkpt><trkpt lat="44.3697102" lon="11.3937163"><ele>308.0</ele><time>2026-04-11T08:49:48.248Z</time></trkpt><trkpt lat="44.369636" lon="11.3937585"><ele>308.0</ele><time>2026-04-11T08:49:50.247Z</time></trkpt><trkpt lat="44.3695563" lon="11.393811"><ele>308.0</ele><time>2026-04-11T08:49:52.248Z</time></trkpt><trkpt lat="44.3694817" lon="11.3938665"><ele>308.0</ele><time>2026-04-11T08:49:54.246Z</time></trkpt><trkpt lat="44.3694127" lon="11.3939232"><ele>308.0</ele><time>2026-04-11T08:49:56.245Z</time></trkpt><trkpt lat="44.3693433" lon="11.3939855"><ele>311.4</ele><time>2026-04-11T08:49:58.245Z</time></trkpt><trkpt lat="44.3692582" lon="11.394056"><ele>314.8</ele><time>2026-04-11T08:50:00.247Z</time></trkpt><trkpt lat="44.369143" lon="11.3941445"><ele>318.2</ele><time>2026-04-11T08:50:02.247Z</time></trkpt><trkpt lat="44.3690762" lon="11.3942013"><ele>321.6</ele><time>2026-04-11T08:50:03.246Z</time></trkpt><trkpt lat="44.3690115" lon="11.3942652"><ele>325.0</ele><time>2026-04-11T08:50:04.246Z</time></trkpt><trkpt lat="44.3689527" lon="11.3943332"><ele>325.0</ele><time>2026-04-11T08:50:05.246Z</time></trkpt><trkpt lat="44.3689027" lon="11.3943967"><ele>325.0</ele><time>2026-04-11T08:50:06.248Z</time></trkpt><trkpt lat="44.3688577" lon="11.3944598"><ele>325.0</ele><time>2026-04-11T08:50:07.246Z</time></trkpt><trkpt lat="44.368786" lon="11.3945427"><ele>325.0</ele><time>2026-04-11T08:50:09.246Z</time></trkpt><trkpt lat="44.3687178" lon="11.3945482"><ele>325.0</ele><time>2026-04-11T08:50:12.248Z</time></trkpt><trkpt lat="44.368664" lon="11.394493"><ele>325.0</ele><time>2026-04-11T08:50:15.248Z</time></trkpt><trkpt lat="44.3685968" lon="11.3944398"><ele>325.0</ele><time>2026-04-11T08:50:17.247Z</time></trkpt><trkpt lat="44.368525" lon="11.3943893"><ele>326.2</ele><time>2026-04-11T08:50:21.245Z</time></trkpt><trkpt lat="44.3684303" lon="11.394312"><ele>327.4</ele><time>2026-04-11T08:50:23.247Z</time></trkpt><trkpt lat="44.3683308" lon="11.3942137"><ele>328.6</ele><time>2026-04-11T08:50:25.246Z</time></trkpt><trkpt lat="44.3682158" lon="11.3941222"><ele>329.8</ele><time>2026-04-11T08:50:27.247Z</time></trkpt><trkpt lat="44.3681423" lon="11.3940723"><ele>331.0</ele><time>2026-04-11T08:50:28.246Z</time></trkpt><trkpt lat="44.3680758" lon="11.3940245"><ele>330.57142857142856</ele><time>2026-04-11T08:50:29.248Z</time></trkpt><trkpt lat="44.3680165" lon="11.393977"><ele>330.1428571428571</ele><time>2026-04-11T08:50:30.248Z</time></trkpt><trkpt lat="44.3679588" lon="11.393927"><ele>329.71428571428567</ele><time>2026-04-11T08:50:31.247Z</time></trkpt><trkpt lat="44.3679003" lon="11.393874"><ele>329.2857142857143</ele><time>2026-04-11T08:50:32.247Z</time></trkpt><trkpt lat="44.367842" lon="11.3938158"><ele>328.85714285714283</ele><time>2026-04-11T08:50:33.247Z</time></trkpt><trkpt lat="44.3677818" lon="11.3937503"><ele>328.4285714285714</ele><time>2026-04-11T08:50:34.247Z</time></trkpt><trkpt lat="44.3677232" lon="11.3936805"><ele>328.0</ele><time>2026-04-11T08:50:35.246Z</time></trkpt><trkpt lat="44.3676705" lon="11.3936103"><ele>328.0</ele><time>2026-04-11T08:50:36.245Z</time></trkpt><trkpt lat="44.367617" lon="11.3935415"><ele>328.0</ele><time>2026-04-11T08:50:37.245Z</time></trkpt><trkpt lat="44.3675692" lon="11.3934768"><ele>328.0</ele><time>2026-04-11T08:50:38.247Z</time></trkpt><trkpt lat="44.3674827" lon="11.393365"><ele>328.0</ele><time>2026-04-11T08:50:40.246Z</time></trkpt><trkpt lat="44.3674013" lon="11.3932515"><ele>328.0</ele><time>2026-04-11T08:50:42.248Z</time></trkpt><trkpt lat="44.3673355" lon="11.3931507"><ele>327.99999999999994</ele><time>2026-04-11T08:50:44.246Z</time></trkpt><trkpt lat="44.3672937" lon="11.3930807"><ele>328.0</ele><time>2026-04-11T08:50:47.246Z</time></trkpt><trkpt lat="44.367225" lon="11.3930475"><ele>328.0</ele><time>2026-04-11T08:50:54.246Z</time></trkpt><trkpt lat="44.3671692" lon="11.3929612"><ele>328.0</ele><time>2026-04-11T08:50:58.246Z</time></trkpt><trkpt lat="44.3671645" lon="11.392871"><ele>328.0</ele><time>2026-04-11T08:51:23.245Z</time></trkpt><trkpt lat="44.36715" lon="11.3927697"><ele>327.99999999999994</ele><time>2026-04-11T08:51:26.244Z</time></trkpt><trkpt lat="44.3670987" lon="11.3926707"><ele>328.0</ele><time>2026-04-11T08:51:28.243Z</time></trkpt><trkpt lat="44.3670062" lon="11.3925337"><ele>326.5</ele><time>2026-04-11T08:51:30.245Z</time></trkpt><trkpt lat="44.3669487" lon="11.3924442"><ele>325.0</ele><time>2026-04-11T08:51:31.244Z</time></trkpt><trkpt lat="44.3668927" lon="11.3923452"><ele>323.5</ele><time>2026-04-11T08:51:32.245Z</time></trkpt><trkpt lat="44.3668448" lon="11.392246"><ele>322.0</ele><time>2026-04-11T08:51:33.24Z</time></trkpt><trkpt lat="44.3667963" lon="11.3921425"><ele>320.5</ele><time>2026-04-11T08:51:34.243Z</time></trkpt><trkpt lat="44.3667378" lon="11.392043"><ele>319.0</ele><time>2026-04-11T08:51:35.241Z</time></trkpt><trkpt lat="44.3666657" lon="11.391954"><ele>321.79999999999995</ele><time>2026-04-11T08:51:36.242Z</time></trkpt><trkpt lat="44.3665797" lon="11.3918918"><ele>324.59999999999997</ele><time>2026-04-11T08:51:37.246Z</time></trkpt><trkpt lat="44.3664857" lon="11.3918502"><ele>327.4</ele><time>2026-04-11T08:51:38.244Z</time></trkpt><trkpt lat="44.3663835" lon="11.3918188"><ele>330.2</ele><time>2026-04-11T08:51:39.246Z</time></trkpt><trkpt lat="44.366284" lon="11.3917872"><ele>333.0</ele><time>2026-04-11T08:51:40.244Z</time></trkpt><trkpt lat="44.3661902" lon="11.3917532"><ele>333.0</ele><time>2026-04-11T08:51:41.244Z</time></trkpt><trkpt lat="44.3660937" lon="11.3917172"><ele>333.0</ele><time>2026-04-11T08:51:42.244Z</time></trkpt><trkpt lat="44.3659908" lon="11.39168"><ele>333.0</ele><time>2026-04-11T08:51:43.244Z</time></trkpt><trkpt lat="44.3658815" lon="11.3916403"><ele>333.0</ele><time>2026-04-11T08:51:44.244Z</time></trkpt><trkpt lat="44.3657655" lon="11.3916002"><ele>333.0</ele><time>2026-04-11T08:51:45.243Z</time></trkpt><trkpt lat="44.3656493" lon="11.3915643"><ele>333.0</ele><time>2026-04-11T08:51:46.244Z</time></trkpt><trkpt lat="44.365542" lon="11.3915345"><ele>333.0</ele><time>2026-04-11T08:51:47.245Z</time></trkpt><trkpt lat="44.36545" lon="11.3915155"><ele>333.0</ele><time>2026-04-11T08:51:48.245Z</time></trkpt><trkpt lat="44.3653715" lon="11.3915083"><ele>333.0</ele><time>2026-04-11T08:51:49.244Z</time></trkpt><trkpt lat="44.3653002" lon="11.3915107"><ele>333.0</ele><time>2026-04-11T08:51:50.246Z</time></trkpt><trkpt lat="44.3652288" lon="11.3915188"><ele>333.0</ele><time>2026-04-11T08:51:51.243Z</time></trkpt><trkpt lat="44.3651558" lon="11.391529"><ele>333.3333333333333</ele><time>2026-04-11T08:51:52.245Z</time></trkpt><trkpt lat="44.3650795" lon="11.3915333"><ele>333.6666666666667</ele><time>2026-04-11T08:51:53.244Z</time></trkpt><trkpt lat="44.3650062" lon="11.3915168"><ele>334.0</ele><time>2026-04-11T08:51:54.243Z</time></trkpt><trkpt lat="44.3649502" lon="11.391471"><ele>334.33333333333337</ele><time>2026-04-11T08:51:55.244Z</time></trkpt><trkpt lat="44.364912" lon="11.3913892"><ele>334.6666666666667</ele><time>2026-04-11T08:51:56.243Z</time></trkpt><trkpt lat="44.364888" lon="11.3912755"><ele>335.0</ele><time>2026-04-11T08:51:57.243Z</time></trkpt><trkpt lat="44.3648732" lon="11.3911295"><ele>335.0</ele><time>2026-04-11T08:51:58.242Z</time></trkpt><trkpt lat="44.3648555" lon="11.3909543"><ele>335.0</ele><time>2026-04-11T08:51:59.242Z</time></trkpt><trkpt lat="44.3648275" lon="11.3907545"><ele>335.0</ele><time>2026-04-11T08:52:00.241Z</time></trkpt><trkpt lat="44.364792" lon="11.3905573"><ele>335.0</ele><time>2026-04-11T08:52:01.242Z</time></trkpt><trkpt lat="44.3647537" lon="11.3903617"><ele>335.5</ele><time>2026-04-11T08:52:02.243Z</time></trkpt><trkpt lat="44.3647188" lon="11.3901792"><ele>336.0</ele><time>2026-04-11T08:52:03.243Z</time></trkpt><trkpt lat="44.3646933" lon="11.3900125"><ele>336.5</ele><time>2026-04-11T08:52:04.243Z</time></trkpt><trkpt lat="44.3646822" lon="11.3898675"><ele>337.0</ele><time>2026-04-11T08:52:05.243Z</time></trkpt><trkpt lat="44.364686" lon="11.3897342"><ele>337.40000000000003</ele><time>2026-04-11T08:52:06.243Z</time></trkpt><trkpt lat="44.364706" lon="11.3896023"><ele>337.8</ele><time>2026-04-11T08:52:07.241Z</time></trkpt><trkpt lat="44.3647428" lon="11.3894715"><ele>338.2</ele><time>2026-04-11T08:52:08.242Z</time></trkpt><trkpt lat="44.3647907" lon="11.3893415"><ele>338.6</ele><time>2026-04-11T08:52:09.242Z</time></trkpt><trkpt lat="44.3648428" lon="11.3892112"><ele>339.0</ele><time>2026-04-11T08:52:10.242Z</time></trkpt><trkpt lat="44.3648868" lon="11.3890863"><ele>339.0</ele><time>2026-04-11T08:52:11.244Z</time></trkpt><trkpt lat="44.3649058" lon="11.3889663"><ele>339.0</ele><time>2026-04-11T08:52:12.245Z</time></trkpt><trkpt lat="44.3648988" lon="11.3888387"><ele>339.0</ele><time>2026-04-11T08:52:13.244Z</time></trkpt><trkpt lat="44.364872" lon="11.3886958"><ele>339.0</ele><time>2026-04-11T08:52:14.244Z</time></trkpt><trkpt lat="44.3648288" lon="11.3885483"><ele>339.0</ele><time>2026-04-11T08:52:15.244Z</time></trkpt><trkpt lat="44.3647675" lon="11.3883938"><ele>340.75</ele><time>2026-04-11T08:52:16.245Z</time></trkpt><trkpt lat="44.3646925" lon="11.3882485"><ele>342.5</ele><time>2026-04-11T08:52:17.244Z</time></trkpt><trkpt lat="44.3646055" lon="11.3881207"><ele>344.25</ele><time>2026-04-11T08:52:18.244Z</time></trkpt><trkpt lat="44.3645038" lon="11.388012"><ele>346.0</ele><time>2026-04-11T08:52:19.243Z</time></trkpt><trkpt lat="44.3643925" lon="11.3879112"><ele>346.0</ele><time>2026-04-11T08:52:20.243Z</time></trkpt><trkpt lat="44.364285" lon="11.3878132"><ele>346.0</ele><time>2026-04-11T08:52:21.24Z</time></trkpt><trkpt lat="44.3641925" lon="11.387706"><ele>346.0</ele><time>2026-04-11T08:52:22.24Z</time></trkpt><trkpt lat="44.3641057" lon="11.3875977"><ele>346.0</ele><time>2026-04-11T08:52:23.24Z</time></trkpt><trkpt lat="44.3640218" lon="11.3874888"><ele>346.0</ele><time>2026-04-11T08:52:24.24Z</time></trkpt><trkpt lat="44.3639355" lon="11.3873955"><ele>346.0</ele><time>2026-04-11T08:52:25.24Z</time></trkpt><trkpt lat="44.3638322" lon="11.38733"><ele>346.0</ele><time>2026-04-11T08:52:26.245Z</time></trkpt><trkpt lat="44.363729" lon="11.3873013"><ele>346.0</ele><time>2026-04-11T08:52:27.245Z</time></trkpt><trkpt lat="44.3636278" lon="11.3872927"><ele>346.0</ele><time>2026-04-11T08:52:28.243Z</time></trkpt><trkpt lat="44.3635205" lon="11.3872988"><ele>347.0</ele><time>2026-04-11T08:52:29.245Z</time></trkpt><trkpt lat="44.3634098" lon="11.3873268"><ele>348.0</ele><time>2026-04-11T08:52:30.243Z</time></trkpt><trkpt lat="44.3632982" lon="11.3873763"><ele>349.0</ele><time>2026-04-11T08:52:31.245Z</time></trkpt><trkpt lat="44.3631887" lon="11.3874322"><ele>350.0</ele><time>2026-04-11T08:52:32.243Z</time></trkpt><trkpt lat="44.3630887" lon="11.3874837"><ele>350.6666666666667</ele><time>2026-04-11T08:52:33.242Z</time></trkpt><trkpt lat="44.3629973" lon="11.3875238"><ele>351.33333333333337</ele><time>2026-04-11T08:52:34.242Z</time></trkpt><trkpt lat="44.3629127" lon="11.3875488"><ele>352.0</ele><time>2026-04-11T08:52:35.243Z</time></trkpt><trkpt lat="44.3628288" lon="11.3875537"><ele>352.6666666666667</ele><time>2026-04-11T08:52:36.243Z</time></trkpt><trkpt lat="44.3627442" lon="11.3875258"><ele>353.3333333333333</ele><time>2026-04-11T08:52:37.243Z</time></trkpt><trkpt lat="44.362665" lon="11.3874807"><ele>354.0</ele><time>2026-04-11T08:52:38.242Z</time></trkpt><trkpt lat="44.3625985" lon="11.3874237"><ele>354.0</ele><time>2026-04-11T08:52:39.24Z</time></trkpt><trkpt lat="44.3625457" lon="11.387329"><ele>354.0</ele><time>2026-04-11T08:52:40.241Z</time></trkpt><trkpt lat="44.362502" lon="11.3872323"><ele>354.0</ele><time>2026-04-11T08:52:41.242Z</time></trkpt><trkpt lat="44.3624518" lon="11.387133"><ele>354.0</ele><time>2026-04-11T08:52:42.242Z</time></trkpt><trkpt lat="44.3623923" lon="11.3870275"><ele>354.0</ele><time>2026-04-11T08:52:43.243Z</time></trkpt><trkpt lat="44.3623295" lon="11.3869248"><ele>354.0</ele><time>2026-04-11T08:52:44.242Z</time></trkpt><trkpt lat="44.3622605" lon="11.38684"><ele>350.6</ele><time>2026-04-11T08:52:45.243Z</time></trkpt><trkpt lat="44.3621822" lon="11.3867695"><ele>347.2</ele><time>2026-04-11T08:52:46.241Z</time></trkpt><trkpt lat="44.3620983" lon="11.3867107"><ele>343.8</ele><time>2026-04-11T08:52:47.241Z</time></trkpt><trkpt lat="44.3620125" lon="11.3866597"><ele>340.40000000000003</ele><time>2026-04-11T08:52:48.24Z</time></trkpt><trkpt lat="44.3619252" lon="11.386606"><ele>337.0</ele><time>2026-04-11T08:52:49.241Z</time></trkpt><trkpt lat="44.3618395" lon="11.3865407"><ele>337.0</ele><time>2026-04-11T08:52:50.241Z</time></trkpt><trkpt lat="44.3617602" lon="11.3864712"><ele>337.0</ele><time>2026-04-11T08:52:51.241Z</time></trkpt><trkpt lat="44.3616778" lon="11.3863895"><ele>337.0</ele><time>2026-04-11T08:52:52.242Z</time></trkpt><trkpt lat="44.361589" lon="11.3862973"><ele>337.0</ele><time>2026-04-11T08:52:53.244Z</time></trkpt><trkpt lat="44.3614933" lon="11.3862038"><ele>337.0</ele><time>2026-04-11T08:52:54.242Z</time></trkpt><trkpt lat="44.3614003" lon="11.3861147"><ele>336.20000000000005</ele><time>2026-04-11T08:52:55.245Z</time></trkpt><trkpt lat="44.3613082" lon="11.3860328"><ele>335.4</ele><time>2026-04-11T08:52:56.245Z</time></trkpt><trkpt lat="44.3612138" lon="11.3859548"><ele>334.6</ele><time>2026-04-11T08:52:57.244Z</time></trkpt><trkpt lat="44.3611143" lon="11.3858777"><ele>333.79999999999995</ele><time>2026-04-11T08:52:58.243Z</time></trkpt><trkpt lat="44.3610172" lon="11.3857968"><ele>333.0</ele><time>2026-04-11T08:52:59.245Z</time></trkpt><trkpt lat="44.3609243" lon="11.3857202"><ele>333.0</ele><time>2026-04-11T08:53:00.242Z</time></trkpt><trkpt lat="44.3608297" lon="11.3856403"><ele>333.0</ele><time>2026-04-11T08:53:01.241Z</time></trkpt><trkpt lat="44.3607422" lon="11.3855483"><ele>333.0</ele><time>2026-04-11T08:53:02.242Z</time></trkpt><trkpt lat="44.3606622" lon="11.3854453"><ele>333.0</ele><time>2026-04-11T08:53:03.243Z</time></trkpt><trkpt lat="44.3605918" lon="11.3853357"><ele>333.0</ele><time>2026-04-11T08:53:04.24Z</time></trkpt><trkpt lat="44.3605325" lon="11.3852193"><ele>330.59999999999997</ele><time>2026-04-11T08:53:05.246Z</time></trkpt><trkpt lat="44.3604845" lon="11.3851045"><ele>328.2</ele><time>2026-04-11T08:53:06.242Z</time></trkpt><trkpt lat="44.3604422" lon="11.3849927"><ele>325.8</ele><time>2026-04-11T08:53:07.243Z</time></trkpt><trkpt lat="44.3604057" lon="11.3848765"><ele>323.4</ele><time>2026-04-11T08:53:08.244Z</time></trkpt><trkpt lat="44.3603763" lon="11.3847523"><ele>321.0</ele><time>2026-04-11T08:53:09.244Z</time></trkpt><trkpt lat="44.3603508" lon="11.3846297"><ele>321.0</ele><time>2026-04-11T08:53:10.243Z</time></trkpt><trkpt lat="44.360332" lon="11.3844903"><ele>321.0</ele><time>2026-04-11T08:53:11.241Z</time></trkpt><trkpt lat="44.360321" lon="11.3843197"><ele>321.0</ele><time>2026-04-11T08:53:12.242Z</time></trkpt><trkpt lat="44.3603075" lon="11.3841505"><ele>321.0</ele><time>2026-04-11T08:53:13.24Z</time></trkpt><trkpt lat="44.3602903" lon="11.3839858"><ele>323.0</ele><time>2026-04-11T08:53:14.24Z</time></trkpt><trkpt lat="44.3602715" lon="11.3838202"><ele>325.0</ele><time>2026-04-11T08:53:15.243Z</time></trkpt><trkpt lat="44.3602525" lon="11.383673"><ele>327.0</ele><time>2026-04-11T08:53:16.242Z</time></trkpt><trkpt lat="44.3602327" lon="11.3835427"><ele>329.0</ele><time>2026-04-11T08:53:17.243Z</time></trkpt><trkpt lat="44.3602052" lon="11.3834293"><ele>331.0</ele><time>2026-04-11T08:53:18.242Z</time></trkpt><trkpt lat="44.3601623" lon="11.3833472"><ele>331.0</ele><time>2026-04-11T08:53:19.245Z</time></trkpt><trkpt lat="44.3600445" lon="11.3832975"><ele>331.0</ele><time>2026-04-11T08:53:21.245Z</time></trkpt><trkpt lat="44.3599308" lon="11.3833017"><ele>331.0</ele><time>2026-04-11T08:53:23.247Z</time></trkpt><trkpt lat="44.3598712" lon="11.383267"><ele>331.0</ele><time>2026-04-11T08:53:24.244Z</time></trkpt><trkpt lat="44.3597968" lon="11.3832015"><ele>331.0</ele><time>2026-04-11T08:53:25.243Z</time></trkpt><trkpt lat="44.3597027" lon="11.3831277"><ele>329.8</ele><time>2026-04-11T08:53:26.245Z</time></trkpt><trkpt lat="44.3595888" lon="11.3830533"><ele>328.6</ele><time>2026-04-11T08:53:27.245Z</time></trkpt><trkpt lat="44.3594807" lon="11.382982"><ele>327.4</ele><time>2026-04-11T08:53:28.245Z</time></trkpt><trkpt lat="44.3593848" lon="11.3829132"><ele>326.2</ele><time>2026-04-11T08:53:29.245Z</time></trkpt><trkpt lat="44.3593035" lon="11.3828463"><ele>325.0</ele><time>2026-04-11T08:53:30.245Z</time></trkpt><trkpt lat="44.3592352" lon="11.3827708"><ele>325.0</ele><time>2026-04-11T08:53:31.246Z</time></trkpt><trkpt lat="44.3591687" lon="11.3826807"><ele>325.0</ele><time>2026-04-11T08:53:32.245Z</time></trkpt><trkpt lat="44.3591115" lon="11.3825782"><ele>325.0</ele><time>2026-04-11T08:53:33.247Z</time></trkpt><trkpt lat="44.3590628" lon="11.3824687"><ele>325.0</ele><time>2026-04-11T08:53:34.243Z</time></trkpt><trkpt lat="44.359014" lon="11.3823507"><ele>325.0</ele><time>2026-04-11T08:53:35.242Z</time></trkpt><trkpt lat="44.3589645" lon="11.3822257"><ele>325.4</ele><time>2026-04-11T08:53:36.242Z</time></trkpt><trkpt lat="44.3589137" lon="11.382085"><ele>325.8</ele><time>2026-04-11T08:53:37.242Z</time></trkpt><trkpt lat="44.3588627" lon="11.3819535"><ele>326.20000000000005</ele><time>2026-04-11T08:53:38.241Z</time></trkpt><trkpt lat="44.3588082" lon="11.3818467"><ele>326.6</ele><time>2026-04-11T08:53:39.242Z</time></trkpt><trkpt lat="44.3587462" lon="11.381757"><ele>327.0</ele><time>2026-04-11T08:53:40.246Z</time></trkpt><trkpt lat="44.3586707" lon="11.3816702"><ele>327.0</ele><time>2026-04-11T08:53:41.246Z</time></trkpt><trkpt lat="44.3585845" lon="11.3816037"><ele>327.0</ele><time>2026-04-11T08:53:42.246Z</time></trkpt><trkpt lat="44.358495" lon="11.3815547"><ele>327.0</ele><time>2026-04-11T08:53:43.244Z</time></trkpt><trkpt lat="44.3584043" lon="11.3815245"><ele>327.0</ele><time>2026-04-11T08:53:44.243Z</time></trkpt><trkpt lat="44.3583118" lon="11.381502"><ele>327.0</ele><time>2026-04-11T08:53:45.244Z</time></trkpt><trkpt lat="44.3582152" lon="11.381479"><ele>327.0</ele><time>2026-04-11T08:53:46.241Z</time></trkpt><trkpt lat="44.3581067" lon="11.381445"><ele>327.0</ele><time>2026-04-11T08:53:47.242Z</time></trkpt><trkpt lat="44.3579983" lon="11.3813942"><ele>327.0</ele><time>2026-04-11T08:53:48.242Z</time></trkpt><trkpt lat="44.3579002" lon="11.3813353"><ele>327.0</ele><time>2026-04-11T08:53:49.24Z</time></trkpt><trkpt lat="44.3578042" lon="11.381274"><ele>327.0</ele><time>2026-04-11T08:53:50.242Z</time></trkpt><trkpt lat="44.357707" lon="11.3812168"><ele>329.6</ele><time>2026-04-11T08:53:51.24Z</time></trkpt><trkpt lat="44.3576045" lon="11.3811498"><ele>332.20000000000005</ele><time>2026-04-11T08:53:52.242Z</time></trkpt><trkpt lat="44.3575052" lon="11.38109"><ele>334.8</ele><time>2026-04-11T08:53:53.245Z</time></trkpt><trkpt lat="44.3574113" lon="11.3810295"><ele>337.4</ele><time>2026-04-11T08:53:54.24Z</time></trkpt><trkpt lat="44.3573303" lon="11.3809705"><ele>340.0</ele><time>2026-04-11T08:53:55.24Z</time></trkpt><trkpt lat="44.3572617" lon="11.3809167"><ele>340.0</ele><time>2026-04-11T08:53:56.242Z</time></trkpt><trkpt lat="44.357207" lon="11.3808458"><ele>340.0</ele><time>2026-04-11T08:53:57.243Z</time></trkpt><trkpt lat="44.3571592" lon="11.3807507"><ele>340.0</ele><time>2026-04-11T08:53:58.244Z</time></trkpt><trkpt lat="44.3571155" lon="11.3806247"><ele>340.0</ele><time>2026-04-11T08:53:59.241Z</time></trkpt><trkpt lat="44.3570725" lon="11.3804742"><ele>340.0</ele><time>2026-04-11T08:54:00.24Z</time></trkpt><trkpt lat="44.3570303" lon="11.3803153"><ele>336.2</ele><time>2026-04-11T08:54:01.241Z</time></trkpt><trkpt lat="44.3569922" lon="11.3801657"><ele>332.4</ele><time>2026-04-11T08:54:02.24Z</time></trkpt><trkpt lat="44.3569605" lon="11.3800275"><ele>328.6</ele><time>2026-04-11T08:54:03.24Z</time></trkpt><trkpt lat="44.3569383" lon="11.3799067"><ele>324.8</ele><time>2026-04-11T08:54:04.242Z</time></trkpt><trkpt lat="44.3569353" lon="11.3797857"><ele>321.0</ele><time>2026-04-11T08:54:05.242Z</time></trkpt><trkpt lat="44.3569512" lon="11.3796642"><ele>321.0</ele><time>2026-04-11T08:54:06.24Z</time></trkpt><trkpt lat="44.3569878" lon="11.3795217"><ele>321.0</ele><time>2026-04-11T08:54:07.242Z</time></trkpt><trkpt lat="44.3570417" lon="11.3793657"><ele>321.0</ele><time>2026-04-11T08:54:08.24Z</time></trkpt><trkpt lat="44.3571032" lon="11.3792073"><ele>321.0</ele><time>2026-04-11T08:54:09.241Z</time></trkpt><trkpt lat="44.3571677" lon="11.3790443"><ele>322.5</ele><time>2026-04-11T08:54:10.24Z</time></trkpt><trkpt lat="44.3572358" lon="11.3788878"><ele>324.0</ele><time>2026-04-11T08:54:11.241Z</time></trkpt><trkpt lat="44.357304" lon="11.3787517"><ele>325.5</ele><time>2026-04-11T08:54:12.24Z</time></trkpt><trkpt lat="44.357371" lon="11.3786335"><ele>327.0</ele><time>2026-04-11T08:54:13.241Z</time></trkpt><trkpt lat="44.3574313" lon="11.3785292"><ele>327.0</ele><time>2026-04-11T08:54:14.242Z</time></trkpt><trkpt lat="44.357491" lon="11.3784188"><ele>327.0</ele><time>2026-04-11T08:54:15.241Z</time></trkpt><trkpt lat="44.3575312" lon="11.3783085"><ele>327.0</ele><time>2026-04-11T08:54:16.242Z</time></trkpt><trkpt lat="44.3575533" lon="11.3781982"><ele>327.0</ele><time>2026-04-11T08:54:17.24Z</time></trkpt><trkpt lat="44.3575578" lon="11.378096"><ele>327.0</ele><time>2026-04-11T08:54:18.24Z</time></trkpt><trkpt lat="44.357549" lon="11.3779865"><ele>327.0</ele><time>2026-04-11T08:54:19.242Z</time></trkpt><trkpt lat="44.357532" lon="11.3778655"><ele>325.20000000000005</ele><time>2026-04-11T08:54:20.242Z</time></trkpt><trkpt lat="44.357515" lon="11.3777415"><ele>323.40000000000003</ele><time>2026-04-11T08:54:21.241Z</time></trkpt><trkpt lat="44.3574995" lon="11.3776123"><ele>321.6</ele><time>2026-04-11T08:54:22.243Z</time></trkpt><trkpt lat="44.357487" lon="11.377475"><ele>319.8</ele><time>2026-04-11T08:54:23.244Z</time></trkpt><trkpt lat="44.357473" lon="11.3773357"><ele>318.0</ele><time>2026-04-11T08:54:24.241Z</time></trkpt><trkpt lat="44.3574478" lon="11.3771873"><ele>317.4</ele><time>2026-04-11T08:54:25.241Z</time></trkpt><trkpt lat="44.3574093" lon="11.3770498"><ele>316.8</ele><time>2026-04-11T08:54:26.241Z</time></trkpt><trkpt lat="44.357362" lon="11.3769142"><ele>316.2</ele><time>2026-04-11T08:54:27.243Z</time></trkpt><trkpt lat="44.3573153" lon="11.3767755"><ele>315.6</ele><time>2026-04-11T08:54:28.243Z</time></trkpt><trkpt lat="44.3572652" lon="11.3766265"><ele>315.0</ele><time>2026-04-11T08:54:29.244Z</time></trkpt><trkpt lat="44.3572025" lon="11.3764563"><ele>318.25</ele><time>2026-04-11T08:54:30.244Z</time></trkpt><trkpt lat="44.3571418" lon="11.3762755"><ele>321.5</ele><time>2026-04-11T08:54:31.243Z</time></trkpt><trkpt lat="44.3570878" lon="11.3761142"><ele>324.75</ele><time>2026-04-11T08:54:32.244Z</time></trkpt><trkpt lat="44.3570338" lon="11.3759675"><ele>328.0</ele><time>2026-04-11T08:54:33.244Z</time></trkpt><trkpt lat="44.3569818" lon="11.3758328"><ele>328.0</ele><time>2026-04-11T08:54:34.244Z</time></trkpt><trkpt lat="44.3569243" lon="11.3757237"><ele>328.0</ele><time>2026-04-11T08:54:35.243Z</time></trkpt><trkpt lat="44.3568587" lon="11.3756412"><ele>328.0</ele><time>2026-04-11T08:54:36.245Z</time></trkpt><trkpt lat="44.3567732" lon="11.3755802"><ele>328.0</ele><time>2026-04-11T08:54:37.244Z</time></trkpt><trkpt lat="44.3566603" lon="11.3755343"><ele>328.0</ele><time>2026-04-11T08:54:38.245Z</time></trkpt><trkpt lat="44.3565477" lon="11.3754995"><ele>328.8333333333333</ele><time>2026-04-11T08:54:39.242Z</time></trkpt><trkpt lat="44.356457" lon="11.3754663"><ele>329.66666666666663</ele><time>2026-04-11T08:54:40.242Z</time></trkpt><trkpt lat="44.3563783" lon="11.3754305"><ele>330.5</ele><time>2026-04-11T08:54:41.245Z</time></trkpt><trkpt lat="44.3563138" lon="11.3753705"><ele>331.3333333333333</ele><time>2026-04-11T08:54:42.241Z</time></trkpt><trkpt lat="44.3562592" lon="11.3752922"><ele>332.1666666666667</ele><time>2026-04-11T08:54:43.243Z</time></trkpt><trkpt lat="44.3562082" lon="11.3751873"><ele>333.0</ele><time>2026-04-11T08:54:44.242Z</time></trkpt><trkpt lat="44.3561565" lon="11.3750497"><ele>333.0</ele><time>2026-04-11T08:54:45.242Z</time></trkpt><trkpt lat="44.3561112" lon="11.3749152"><ele>333.0</ele><time>2026-04-11T08:54:46.244Z</time></trkpt><trkpt lat="44.3560747" lon="11.3747968"><ele>333.0</ele><time>2026-04-11T08:54:47.241Z</time></trkpt><trkpt lat="44.3560317" lon="11.374684"><ele>333.0</ele><time>2026-04-11T08:54:48.243Z</time></trkpt><trkpt lat="44.3559742" lon="11.374579"><ele>333.0</ele><time>2026-04-11T08:54:49.241Z</time></trkpt><trkpt lat="44.355903" lon="11.3744787"><ele>333.2</ele><time>2026-04-11T08:54:50.241Z</time></trkpt><trkpt lat="44.3558233" lon="11.3743775"><ele>333.4</ele><time>2026-04-11T08:54:51.239Z</time></trkpt><trkpt lat="44.3557348" lon="11.3742797"><ele>333.59999999999997</ele><time>2026-04-11T08:54:52.239Z</time></trkpt><trkpt lat="44.3556477" lon="11.3741853"><ele>333.79999999999995</ele><time>2026-04-11T08:54:53.242Z</time></trkpt><trkpt lat="44.3555628" lon="11.3740857"><ele>334.0</ele><time>2026-04-11T08:54:54.242Z</time></trkpt><trkpt lat="44.3554795" lon="11.3739882"><ele>335.66666666666663</ele><time>2026-04-11T08:54:55.242Z</time></trkpt><trkpt lat="44.3554035" lon="11.3738997"><ele>337.3333333333333</ele><time>2026-04-11T08:54:56.245Z</time></trkpt><trkpt lat="44.3553378" lon="11.3738207"><ele>339.0</ele><time>2026-04-11T08:54:57.241Z</time></trkpt><trkpt lat="44.3552817" lon="11.3737507"><ele>340.6666666666667</ele><time>2026-04-11T08:54:58.24Z</time></trkpt><trkpt lat="44.3552243" lon="11.373685"><ele>342.33333333333337</ele><time>2026-04-11T08:54:59.242Z</time></trkpt><trkpt lat="44.3551715" lon="11.3736257"><ele>344.0</ele><time>2026-04-11T08:55:00.24Z</time></trkpt><trkpt lat="44.3551223" lon="11.3735677"><ele>344.0</ele><time>2026-04-11T08:55:01.24Z</time></trkpt><trkpt lat="44.3550728" lon="11.3735057"><ele>344.0</ele><time>2026-04-11T08:55:02.241Z</time></trkpt><trkpt lat="44.3550232" lon="11.3734432"><ele>344.0</ele><time>2026-04-11T08:55:03.24Z</time></trkpt><trkpt lat="44.3549697" lon="11.3733705"><ele>344.0</ele><time>2026-04-11T08:55:04.24Z</time></trkpt><trkpt lat="44.3549073" lon="11.3732822"><ele>344.0</ele><time>2026-04-11T08:55:05.243Z</time></trkpt><trkpt lat="44.354821" lon="11.3731692"><ele>344.0</ele><time>2026-04-11T08:55:06.24Z</time></trkpt><trkpt lat="44.3547165" lon="11.3730303"><ele>345.0</ele><time>2026-04-11T08:55:07.242Z</time></trkpt><trkpt lat="44.3546258" lon="11.3728965"><ele>346.0</ele><time>2026-04-11T08:55:08.243Z</time></trkpt><trkpt lat="44.3545527" lon="11.3727705"><ele>347.0</ele><time>2026-04-11T08:55:09.242Z</time></trkpt><trkpt lat="44.3544963" lon="11.3726425"><ele>348.0</ele><time>2026-04-11T08:55:10.242Z</time></trkpt><trkpt lat="44.354452" lon="11.3725228"><ele>348.0</ele><time>2026-04-11T08:55:11.245Z</time></trkpt><trkpt lat="44.354411" lon="11.3724103"><ele>348.0</ele><time>2026-04-11T08:55:12.244Z</time></trkpt><trkpt lat="44.3543725" lon="11.3722947"><ele>348.0</ele><time>2026-04-11T08:55:13.24Z</time></trkpt><trkpt lat="44.354331" lon="11.372174"><ele>348.0</ele><time>2026-04-11T08:55:14.242Z</time></trkpt><trkpt lat="44.3542813" lon="11.3720437"><ele>348.0</ele><time>2026-04-11T08:55:15.241Z</time></trkpt><trkpt lat="44.3542202" lon="11.3719132"><ele>348.4</ele><time>2026-04-11T08:55:16.242Z</time></trkpt><trkpt lat="44.3541392" lon="11.3718053"><ele>348.79999999999995</ele><time>2026-04-11T08:55:17.244Z</time></trkpt><trkpt lat="44.3540432" lon="11.3717265"><ele>349.2</ele><time>2026-04-11T08:55:18.244Z</time></trkpt><trkpt lat="44.3539417" lon="11.3716688"><ele>349.6</ele><time>2026-04-11T08:55:19.244Z</time></trkpt><trkpt lat="44.3538353" lon="11.3716263"><ele>350.0</ele><time>2026-04-11T08:55:20.245Z</time></trkpt><trkpt lat="44.3537253" lon="11.3715918"><ele>348.5</ele><time>2026-04-11T08:55:21.246Z</time></trkpt><trkpt lat="44.353617" lon="11.3715472"><ele>347.0</ele><time>2026-04-11T08:55:22.242Z</time></trkpt><trkpt lat="44.3535115" lon="11.3714823"><ele>345.5</ele><time>2026-04-11T08:55:23.242Z</time></trkpt><trkpt lat="44.353405" lon="11.3713907"><ele>344.0</ele><time>2026-04-11T08:55:24.243Z</time></trkpt><trkpt lat="44.3532985" lon="11.371274"><ele>344.0</ele><time>2026-04-11T08:55:25.242Z</time></trkpt><trkpt lat="44.3531893" lon="11.3711432"><ele>344.0</ele><time>2026-04-11T08:55:26.242Z</time></trkpt><trkpt lat="44.3530682" lon="11.3710037"><ele>344.0</ele><time>2026-04-11T08:55:27.242Z</time></trkpt><trkpt lat="44.3529402" lon="11.370862"><ele>340.33333333333337</ele><time>2026-04-11T08:55:28.243Z</time></trkpt><trkpt lat="44.3528115" lon="11.3707267"><ele>336.6666666666667</ele><time>2026-04-11T08:55:29.242Z</time></trkpt><trkpt lat="44.3526878" lon="11.3705977"><ele>333.0</ele><time>2026-04-11T08:55:30.242Z</time></trkpt><trkpt lat="44.352576" lon="11.3704675"><ele>333.0</ele><time>2026-04-11T08:55:31.241Z</time></trkpt><trkpt lat="44.352478" lon="11.3703278"><ele>333.0</ele><time>2026-04-11T08:55:32.243Z</time></trkpt><trkpt lat="44.3523972" lon="11.3701855"><ele>333.0</ele><time>2026-04-11T08:55:33.241Z</time></trkpt><trkpt lat="44.3523153" lon="11.3700662"><ele>333.0</ele><time>2026-04-11T08:55:34.242Z</time></trkpt><trkpt lat="44.3522205" lon="11.3699875"><ele>332.0</ele><time>2026-04-11T08:55:35.244Z</time></trkpt><trkpt lat="44.3521302" lon="11.3699353"><ele>331.0</ele><time>2026-04-11T08:55:36.245Z</time></trkpt><trkpt lat="44.3520495" lon="11.369894"><ele>330.0</ele><time>2026-04-11T08:55:37.243Z</time></trkpt><trkpt lat="44.351986" lon="11.3698407"><ele>329.0</ele><time>2026-04-11T08:55:38.241Z</time></trkpt><trkpt lat="44.3519422" lon="11.3697693"><ele>328.0</ele><time>2026-04-11T08:55:39.24Z</time></trkpt><trkpt lat="44.3519247" lon="11.3695937"><ele>328.0</ele><time>2026-04-11T08:55:41.239Z</time></trkpt><trkpt lat="44.3519098" lon="11.3694968"><ele>328.0</ele><time>2026-04-11T08:55:42.243Z</time></trkpt><trkpt lat="44.3518637" lon="11.369409"><ele>328.0</ele><time>2026-04-11T08:55:43.241Z</time></trkpt><trkpt lat="44.3517863" lon="11.369341"><ele>328.0</ele><time>2026-04-11T08:55:44.242Z</time></trkpt><trkpt lat="44.3516903" lon="11.36929"><ele>328.0</ele><time>2026-04-11T08:55:45.244Z</time></trkpt><trkpt lat="44.3515812" lon="11.3692427"><ele>328.0</ele><time>2026-04-11T08:55:46.242Z</time></trkpt><trkpt lat="44.3514668" lon="11.3691817"><ele>328.0</ele><time>2026-04-11T08:55:47.243Z</time></trkpt><trkpt lat="44.3513607" lon="11.3691067"><ele>328.0</ele><time>2026-04-11T08:55:48.244Z</time></trkpt><trkpt lat="44.3512728" lon="11.3690235"><ele>328.0</ele><time>2026-04-11T08:55:49.244Z</time></trkpt><trkpt lat="44.351204" lon="11.368937"><ele>328.0</ele><time>2026-04-11T08:55:50.245Z</time></trkpt><trkpt lat="44.3511482" lon="11.3688483"><ele>326.59999999999997</ele><time>2026-04-11T08:55:51.242Z</time></trkpt><trkpt lat="44.351091" lon="11.3687503"><ele>325.2</ele><time>2026-04-11T08:55:52.244Z</time></trkpt><trkpt lat="44.3510293" lon="11.3686423"><ele>323.8</ele><time>2026-04-11T08:55:53.244Z</time></trkpt><trkpt lat="44.3509737" lon="11.3685257"><ele>322.4</ele><time>2026-04-11T08:55:54.261Z</time></trkpt><trkpt lat="44.3509332" lon="11.368398"><ele>321.0</ele><time>2026-04-11T08:55:55.244Z</time></trkpt><trkpt lat="44.3509125" lon="11.368261"><ele>321.0</ele><time>2026-04-11T08:55:56.245Z</time></trkpt><trkpt lat="44.350916" lon="11.3681175"><ele>321.0</ele><time>2026-04-11T08:55:57.243Z</time></trkpt><trkpt lat="44.3509362" lon="11.3679718"><ele>321.0</ele><time>2026-04-11T08:55:58.245Z</time></trkpt><trkpt lat="44.3509547" lon="11.3678275"><ele>321.0</ele><time>2026-04-11T08:55:59.242Z</time></trkpt><trkpt lat="44.3509585" lon="11.3676848"><ele>321.0</ele><time>2026-04-11T08:56:00.242Z</time></trkpt><trkpt lat="44.3509412" lon="11.3675325"><ele>322.0</ele><time>2026-04-11T08:56:01.241Z</time></trkpt><trkpt lat="44.3509003" lon="11.3673703"><ele>323.0</ele><time>2026-04-11T08:56:02.241Z</time></trkpt><trkpt lat="44.3508415" lon="11.3671983"><ele>324.0</ele><time>2026-04-11T08:56:03.24Z</time></trkpt><trkpt lat="44.350773" lon="11.3670232"><ele>325.0</ele><time>2026-04-11T08:56:04.24Z</time></trkpt><trkpt lat="44.3507045" lon="11.3668497"><ele>325.0</ele><time>2026-04-11T08:56:05.24Z</time></trkpt><trkpt lat="44.350643" lon="11.3666722"><ele>325.0</ele><time>2026-04-11T08:56:06.24Z</time></trkpt><trkpt lat="44.3505953" lon="11.36649"><ele>325.0</ele><time>2026-04-11T08:56:07.242Z</time></trkpt><trkpt lat="44.3505628" lon="11.366292"><ele>325.0</ele><time>2026-04-11T08:56:08.242Z</time></trkpt><trkpt lat="44.3505472" lon="11.3660702"><ele>321.66666666666663</ele><time>2026-04-11T08:56:09.242Z</time></trkpt><trkpt lat="44.3505522" lon="11.3658268"><ele>318.3333333333333</ele><time>2026-04-11T08:56:10.242Z</time></trkpt><trkpt lat="44.3505523" lon="11.3655878"><ele>315.0</ele><time>2026-04-11T08:56:11.243Z</time></trkpt><trkpt lat="44.3505385" lon="11.3653485"><ele>310.0</ele><time>2026-04-11T08:56:12.244Z</time></trkpt><trkpt lat="44.3505163" lon="11.3651097"><ele>305.0</ele><time>2026-04-11T08:56:13.242Z</time></trkpt><trkpt lat="44.350494" lon="11.3648915"><ele>300.0</ele><time>2026-04-11T08:56:14.242Z</time></trkpt><trkpt lat="44.350477" lon="11.3646973"><ele>300.2</ele><time>2026-04-11T08:56:15.242Z</time></trkpt><trkpt lat="44.350465" lon="11.3645268"><ele>300.4</ele><time>2026-04-11T08:56:16.244Z</time></trkpt><trkpt lat="44.3504557" lon="11.3643763"><ele>300.6</ele><time>2026-04-11T08:56:17.243Z</time></trkpt><trkpt lat="44.3504488" lon="11.3642413"><ele>300.8</ele><time>2026-04-11T08:56:18.242Z</time></trkpt><trkpt lat="44.3504457" lon="11.3641228"><ele>301.0</ele><time>2026-04-11T08:56:19.242Z</time></trkpt><trkpt lat="44.3504432" lon="11.3640117"><ele>301.0</ele><time>2026-04-11T08:56:20.245Z</time></trkpt><trkpt lat="44.3504407" lon="11.363908"><ele>301.0</ele><time>2026-04-11T08:56:21.245Z</time></trkpt><trkpt lat="44.3504383" lon="11.3638183"><ele>301.0</ele><time>2026-04-11T08:56:22.245Z</time></trkpt><trkpt lat="44.3504332" lon="11.3636915"><ele>301.0</ele><time>2026-04-11T08:56:24.244Z</time></trkpt><trkpt lat="44.3504302" lon="11.3635712"><ele>301.0</ele><time>2026-04-11T08:56:27.242Z</time></trkpt><trkpt lat="44.3504258" lon="11.3634772"><ele>301.0</ele><time>2026-04-11T08:56:31.243Z</time></trkpt><trkpt lat="44.3503847" lon="11.3633862"><ele>300.8</ele><time>2026-04-11T08:56:59.247Z</time></trkpt><trkpt lat="44.3502917" lon="11.3633995"><ele>300.6</ele><time>2026-04-11T08:57:01.246Z</time></trkpt><trkpt lat="44.3502267" lon="11.3634315"><ele>300.4</ele><time>2026-04-11T08:57:02.246Z</time></trkpt><trkpt lat="44.3501423" lon="11.3634663"><ele>300.2</ele><time>2026-04-11T08:57:03.246Z</time></trkpt><trkpt lat="44.3500485" lon="11.3634995"><ele>300.0</ele><time>2026-04-11T08:57:04.244Z</time></trkpt><trkpt lat="44.3499448" lon="11.3635365"><ele>300.0</ele><time>2026-04-11T08:57:05.244Z</time></trkpt><trkpt lat="44.3498362" lon="11.3635758"><ele>300.0</ele><time>2026-04-11T08:57:06.245Z</time></trkpt><trkpt lat="44.3497308" lon="11.3636167"><ele>300.0</ele><time>2026-04-11T08:57:07.243Z</time></trkpt><trkpt lat="44.3496333" lon="11.3636575"><ele>300.0</ele><time>2026-04-11T08:57:08.245Z</time></trkpt><trkpt lat="44.3495395" lon="11.3636958"><ele>300.0</ele><time>2026-04-11T08:57:09.244Z</time></trkpt><trkpt lat="44.3494442" lon="11.3637318"><ele>299.2</ele><time>2026-04-11T08:57:10.245Z</time></trkpt><trkpt lat="44.349345" lon="11.363767"><ele>298.4</ele><time>2026-04-11T08:57:11.246Z</time></trkpt><trkpt lat="44.3492427" lon="11.3638045"><ele>297.6</ele><time>2026-04-11T08:57:12.244Z</time></trkpt><trkpt lat="44.3491377" lon="11.3638443"><ele>296.8</ele><time>2026-04-11T08:57:13.244Z</time></trkpt><trkpt lat="44.3490373" lon="11.3638823"><ele>296.0</ele><time>2026-04-11T08:57:14.247Z</time></trkpt><trkpt lat="44.3489435" lon="11.363919"><ele>294.6</ele><time>2026-04-11T08:57:15.242Z</time></trkpt><trkpt lat="44.3488535" lon="11.3639552"><ele>293.20000000000005</ele><time>2026-04-11T08:57:16.241Z</time></trkpt><trkpt lat="44.3487595" lon="11.3639962"><ele>291.79999999999995</ele><time>2026-04-11T08:57:17.242Z</time></trkpt><trkpt lat="44.3486642" lon="11.3640432"><ele>290.4</ele><time>2026-04-11T08:57:18.242Z</time></trkpt><trkpt lat="44.3485708" lon="11.3640962"><ele>289.0</ele><time>2026-04-11T08:57:19.241Z</time></trkpt><trkpt lat="44.3484812" lon="11.3641527"><ele>289.0</ele><time>2026-04-11T08:57:20.245Z</time></trkpt><trkpt lat="44.3483938" lon="11.3642105"><ele>289.0</ele><time>2026-04-11T08:57:21.246Z</time></trkpt><trkpt lat="44.3483087" lon="11.364269"><ele>289.0</ele><time>2026-04-11T08:57:22.246Z</time></trkpt><trkpt lat="44.348225" lon="11.3643253"><ele>289.0</ele><time>2026-04-11T08:57:23.245Z</time></trkpt><trkpt lat="44.3481435" lon="11.3643802"><ele>289.0</ele><time>2026-04-11T08:57:24.245Z</time></trkpt><trkpt lat="44.348065" lon="11.3644368"><ele>288.66666666666663</ele><time>2026-04-11T08:57:25.246Z</time></trkpt><trkpt lat="44.347991" lon="11.364496"><ele>288.3333333333333</ele><time>2026-04-11T08:57:26.245Z</time></trkpt><trkpt lat="44.3479203" lon="11.3645538"><ele>288.0</ele><time>2026-04-11T08:57:27.245Z</time></trkpt><trkpt lat="44.347851" lon="11.3646142"><ele>287.6666666666667</ele><time>2026-04-11T08:57:28.245Z</time></trkpt><trkpt lat="44.3477838" lon="11.364674"><ele>287.33333333333337</ele><time>2026-04-11T08:57:29.244Z</time></trkpt><trkpt lat="44.3477118" lon="11.3647457"><ele>287.0</ele><time>2026-04-11T08:57:30.247Z</time></trkpt><trkpt lat="44.3476372" lon="11.3648408"><ele>286.0</ele><time>2026-04-11T08:57:31.246Z</time></trkpt><trkpt lat="44.3475718" lon="11.3649505"><ele>285.0</ele><time>2026-04-11T08:57:32.245Z</time></trkpt><trkpt lat="44.3475097" lon="11.3650588"><ele>284.0</ele><time>2026-04-11T08:57:33.246Z</time></trkpt><trkpt lat="44.3474445" lon="11.365157"><ele>283.0</ele><time>2026-04-11T08:57:34.246Z</time></trkpt><trkpt lat="44.3473725" lon="11.3652352"><ele>282.0</ele><time>2026-04-11T08:57:35.243Z</time></trkpt><trkpt lat="44.347289" lon="11.365288"><ele>281.6</ele><time>2026-04-11T08:57:36.241Z</time></trkpt><trkpt lat="44.3471942" lon="11.365315"><ele>281.2</ele><time>2026-04-11T08:57:37.245Z</time></trkpt><trkpt lat="44.3470838" lon="11.3653213"><ele>280.8</ele><time>2026-04-11T08:57:38.243Z</time></trkpt><trkpt lat="44.3469727" lon="11.3653195"><ele>280.4</ele><time>2026-04-11T08:57:39.243Z</time></trkpt><trkpt lat="44.3468775" lon="11.3653285"><ele>280.0</ele><time>2026-04-11T08:57:40.239Z</time></trkpt><trkpt lat="44.3467888" lon="11.365362"><ele>280.0</ele><time>2026-04-11T08:57:41.238Z</time></trkpt><trkpt lat="44.3467135" lon="11.3654287"><ele>280.0</ele><time>2026-04-11T08:57:42.238Z</time></trkpt><trkpt lat="44.3466605" lon="11.3655257"><ele>280.0</ele><time>2026-04-11T08:57:43.238Z</time></trkpt><trkpt lat="44.3466332" lon="11.365655"><ele>280.0</ele><time>2026-04-11T08:57:44.241Z</time></trkpt><trkpt lat="44.3466235" lon="11.3658303"><ele>280.0</ele><time>2026-04-11T08:57:45.24Z</time></trkpt><trkpt lat="44.3466168" lon="11.3660328"><ele>278.75</ele><time>2026-04-11T08:57:46.24Z</time></trkpt><trkpt lat="44.3466087" lon="11.3662392"><ele>277.5</ele><time>2026-04-11T08:57:47.24Z</time></trkpt><trkpt lat="44.3465993" lon="11.3664153"><ele>276.25</ele><time>2026-04-11T08:57:48.24Z</time></trkpt><trkpt lat="44.3465853" lon="11.3665625"><ele>275.0</ele><time>2026-04-11T08:57:49.24Z</time></trkpt><trkpt lat="44.3465563" lon="11.3666815"><ele>275.0</ele><time>2026-04-11T08:57:50.242Z</time></trkpt><trkpt lat="44.346506" lon="11.3667605"><ele>275.0</ele><time>2026-04-11T08:57:51.239Z</time></trkpt><trkpt lat="44.3464427" lon="11.366782"><ele>275.0</ele><time>2026-04-11T08:57:52.243Z</time></trkpt><trkpt lat="44.3463685" lon="11.3666532"><ele>275.0</ele><time>2026-04-11T08:57:54.243Z</time></trkpt><trkpt lat="44.3463725" lon="11.3665167"><ele>275.0</ele><time>2026-04-11T08:57:55.245Z</time></trkpt><trkpt lat="44.3464002" lon="11.3663608"><ele>275.0</ele><time>2026-04-11T08:57:56.24Z</time></trkpt><trkpt lat="44.3464213" lon="11.3662265"><ele>275.0</ele><time>2026-04-11T08:57:57.244Z</time></trkpt><trkpt lat="44.3464135" lon="11.3661158"><ele>275.0</ele><time>2026-04-11T08:57:58.24Z</time></trkpt><trkpt lat="44.3463693" lon="11.3660473"><ele>275.0</ele><time>2026-04-11T08:57:59.238Z</time></trkpt><trkpt lat="44.3463005" lon="11.3660347"><ele>275.0</ele><time>2026-04-11T08:58:00.24Z</time></trkpt><trkpt lat="44.3462093" lon="11.3660838"><ele>275.0</ele><time>2026-04-11T08:58:01.241Z</time></trkpt><trkpt lat="44.3461013" lon="11.3661938"><ele>270.4</ele><time>2026-04-11T08:58:02.242Z</time></trkpt><trkpt lat="44.346013" lon="11.3663095"><ele>265.8</ele><time>2026-04-11T08:58:03.242Z</time></trkpt><trkpt lat="44.3459357" lon="11.3663985"><ele>261.2</ele><time>2026-04-11T08:58:04.247Z</time></trkpt><trkpt lat="44.3458497" lon="11.3664453"><ele>256.6</ele><time>2026-04-11T08:58:05.241Z</time></trkpt><trkpt lat="44.3457633" lon="11.3664288"><ele>252.0</ele><time>2026-04-11T08:58:06.24Z</time></trkpt><trkpt lat="44.3456843" lon="11.3663383"><ele>251.75</ele><time>2026-04-11T08:58:07.243Z</time></trkpt><trkpt lat="44.3456045" lon="11.3661758"><ele>251.5</ele><time>2026-04-11T08:58:08.242Z</time></trkpt><trkpt lat="44.3455293" lon="11.3660007"><ele>251.25</ele><time>2026-04-11T08:58:09.243Z</time></trkpt><trkpt lat="44.3454638" lon="11.3658483"><ele>251.0</ele><time>2026-04-11T08:58:10.246Z</time></trkpt><trkpt lat="44.3454062" lon="11.3657267"><ele>247.83333333333334</ele><time>2026-04-11T08:58:11.245Z</time></trkpt><trkpt lat="44.3453412" lon="11.3656533"><ele>244.66666666666669</ele><time>2026-04-11T08:58:12.245Z</time></trkpt><trkpt lat="44.3452743" lon="11.3656477"><ele>241.5</ele><time>2026-04-11T08:58:13.244Z</time></trkpt><trkpt lat="44.3452178" lon="11.3657063"><ele>238.33333333333331</ele><time>2026-04-11T08:58:14.245Z</time></trkpt><trkpt lat="44.3451943" lon="11.365812"><ele>235.16666666666666</ele><time>2026-04-11T08:58:15.244Z</time></trkpt><trkpt lat="44.3452075" lon="11.3659612"><ele>232.0</ele><time>2026-04-11T08:58:16.242Z</time></trkpt><trkpt lat="44.3452505" lon="11.3661627"><ele>231.33333333333331</ele><time>2026-04-11T08:58:17.242Z</time></trkpt><trkpt lat="44.3452975" lon="11.366391"><ele>230.66666666666669</ele><time>2026-04-11T08:58:18.242Z</time></trkpt><trkpt lat="44.3453435" lon="11.3666347"><ele>230.0</ele><time>2026-04-11T08:58:19.243Z</time></trkpt><trkpt lat="44.3453963" lon="11.3668692"><ele>230.0</ele><time>2026-04-11T08:58:20.242Z</time></trkpt><trkpt lat="44.3454643" lon="11.3670807"><ele>230.0</ele><time>2026-04-11T08:58:21.241Z</time></trkpt><trkpt lat="44.3455367" lon="11.367277"><ele>230.0</ele><time>2026-04-11T08:58:22.243Z</time></trkpt><trkpt lat="44.3455982" lon="11.367466"><ele>228.5</ele><time>2026-04-11T08:58:23.243Z</time></trkpt><trkpt lat="44.3456505" lon="11.3676408"><ele>227.0</ele><time>2026-04-11T08:58:24.242Z</time></trkpt><trkpt lat="44.3456918" lon="11.3678047"><ele>225.5</ele><time>2026-04-11T08:58:25.243Z</time></trkpt><trkpt lat="44.3457147" lon="11.3679615"><ele>224.0</ele><time>2026-04-11T08:58:26.242Z</time></trkpt><trkpt lat="44.3457095" lon="11.368108"><ele>224.00000000000003</ele><time>2026-04-11T08:58:27.243Z</time></trkpt><trkpt lat="44.345682" lon="11.3682372"><ele>224.0</ele><time>2026-04-11T08:58:28.243Z</time></trkpt><trkpt lat="44.345641" lon="11.3683327"><ele>224.0</ele><time>2026-04-11T08:58:29.241Z</time></trkpt><trkpt lat="44.3455837" lon="11.3683838"><ele>224.0</ele><time>2026-04-11T08:58:30.241Z</time></trkpt><trkpt lat="44.345519" lon="11.3683777"><ele>224.00000000000003</ele><time>2026-04-11T08:58:31.239Z</time></trkpt><trkpt lat="44.3454652" lon="11.3683055"><ele>224.0</ele><time>2026-04-11T08:58:32.241Z</time></trkpt><trkpt lat="44.3454322" lon="11.3681675"><ele>222.6</ele><time>2026-04-11T08:58:33.242Z</time></trkpt><trkpt lat="44.3454137" lon="11.3680223"><ele>221.2</ele><time>2026-04-11T08:58:34.244Z</time></trkpt><trkpt lat="44.345376" lon="11.3679053"><ele>219.79999999999998</ele><time>2026-04-11T08:58:35.246Z</time></trkpt><trkpt lat="44.3453113" lon="11.3678293"><ele>218.39999999999998</ele><time>2026-04-11T08:58:36.246Z</time></trkpt><trkpt lat="44.345225" lon="11.3678005"><ele>217.0</ele><time>2026-04-11T08:58:37.245Z</time></trkpt><trkpt lat="44.3451245" lon="11.3677972"><ele>217.0</ele><time>2026-04-11T08:58:38.245Z</time></trkpt><trkpt lat="44.3450252" lon="11.3678133"><ele>217.0</ele><time>2026-04-11T08:58:39.245Z</time></trkpt><trkpt lat="44.3449292" lon="11.367863"><ele>217.0</ele><time>2026-04-11T08:58:40.243Z</time></trkpt><trkpt lat="44.3448353" lon="11.3679605"><ele>217.0</ele><time>2026-04-11T08:58:41.245Z</time></trkpt><trkpt lat="44.3447338" lon="11.3681122"><ele>216.33333333333331</ele><time>2026-04-11T08:58:42.244Z</time></trkpt><trkpt lat="44.3446397" lon="11.3682823"><ele>215.66666666666669</ele><time>2026-04-11T08:58:43.244Z</time></trkpt><trkpt lat="44.3445398" lon="11.3684685"><ele>215.0</ele><time>2026-04-11T08:58:44.244Z</time></trkpt><trkpt lat="44.3444398" lon="11.3686495"><ele>215.0</ele><time>2026-04-11T08:58:45.244Z</time></trkpt><trkpt lat="44.344346" lon="11.3688062"><ele>215.0</ele><time>2026-04-11T08:58:46.243Z</time></trkpt><trkpt lat="44.3442645" lon="11.368944"><ele>215.0</ele><time>2026-04-11T08:58:47.244Z</time></trkpt><trkpt lat="44.3441972" lon="11.3690662"><ele>215.0</ele><time>2026-04-11T08:58:48.244Z</time></trkpt><trkpt lat="44.3441447" lon="11.3691672"><ele>215.16666666666669</ele><time>2026-04-11T08:58:49.243Z</time></trkpt><trkpt lat="44.3441033" lon="11.369249"><ele>215.33333333333334</ele><time>2026-04-11T08:58:50.245Z</time></trkpt><trkpt lat="44.3440527" lon="11.3693502"><ele>215.5</ele><time>2026-04-11T08:58:52.243Z</time></trkpt><trkpt lat="44.3440668" lon="11.3694552"><ele>215.66666666666669</ele><time>2026-04-11T08:58:54.243Z</time></trkpt><trkpt lat="44.3441055" lon="11.3695398"><ele>215.83333333333334</ele><time>2026-04-11T08:58:55.243Z</time></trkpt><trkpt lat="44.34417" lon="11.3696253"><ele>216.0</ele><time>2026-04-11T08:58:56.243Z</time></trkpt><trkpt lat="44.3442385" lon="11.3696952"><ele>217.0</ele><time>2026-04-11T08:58:57.242Z</time></trkpt><trkpt lat="44.3443023" lon="11.3697507"><ele>218.0</ele><time>2026-04-11T08:58:58.244Z</time></trkpt><trkpt lat="44.3443643" lon="11.369796"><ele>219.0</ele><time>2026-04-11T08:58:59.245Z</time></trkpt><trkpt lat="44.34444" lon="11.3698458"><ele>220.0</ele><time>2026-04-11T08:59:00.243Z</time></trkpt><trkpt lat="44.3445317" lon="11.369913"><ele>221.0</ele><time>2026-04-11T08:59:01.244Z</time></trkpt><trkpt lat="44.344602" lon="11.3700005"><ele>222.0</ele><time>2026-04-11T08:59:02.244Z</time></trkpt><trkpt lat="44.3446483" lon="11.3701182"><ele>222.0</ele><time>2026-04-11T08:59:03.245Z</time></trkpt><trkpt lat="44.3446678" lon="11.370267"><ele>222.0</ele><time>2026-04-11T08:59:04.244Z</time></trkpt><trkpt lat="44.3446618" lon="11.3704548"><ele>222.0</ele><time>2026-04-11T08:59:05.245Z</time></trkpt><trkpt lat="44.3446512" lon="11.3706543"><ele>222.0</ele><time>2026-04-11T08:59:06.242Z</time></trkpt><trkpt lat="44.3446535" lon="11.3708385"><ele>222.25</ele><time>2026-04-11T08:59:07.246Z</time></trkpt><trkpt lat="44.3446757" lon="11.3710038"><ele>222.5</ele><time>2026-04-11T08:59:08.245Z</time></trkpt><trkpt lat="44.3447223" lon="11.3711453"><ele>222.75</ele><time>2026-04-11T08:59:09.244Z</time></trkpt><trkpt lat="44.3448007" lon="11.3712513"><ele>223.0</ele><time>2026-04-11T08:59:10.246Z</time></trkpt><trkpt lat="44.3449157" lon="11.3713217"><ele>223.0</ele><time>2026-04-11T08:59:11.244Z</time></trkpt><trkpt lat="44.3450643" lon="11.3713703"><ele>223.0</ele><time>2026-04-11T08:59:12.244Z</time></trkpt><trkpt lat="44.345224" lon="11.3714132"><ele>223.0</ele><time>2026-04-11T08:59:13.246Z</time></trkpt><trkpt lat="44.3453717" lon="11.3714505"><ele>223.0</ele><time>2026-04-11T08:59:14.247Z</time></trkpt><trkpt lat="44.3455042" lon="11.3714858"><ele>223.0</ele><time>2026-04-11T08:59:15.247Z</time></trkpt><trkpt lat="44.3456032" lon="11.3715158"><ele>223.0</ele><time>2026-04-11T08:59:16.246Z</time></trkpt><trkpt lat="44.3456828" lon="11.3715308"><ele>223.0</ele><time>2026-04-11T08:59:17.246Z</time></trkpt><trkpt lat="44.3457538" lon="11.3715355"><ele>223.0</ele><time>2026-04-11T08:59:18.245Z</time></trkpt><trkpt lat="44.3458198" lon="11.371555"><ele>221.8</ele><time>2026-04-11T08:59:19.244Z</time></trkpt><trkpt lat="44.3458867" lon="11.3716078"><ele>220.60000000000002</ele><time>2026-04-11T08:59:20.246Z</time></trkpt><trkpt lat="44.3459422" lon="11.3717023"><ele>219.39999999999998</ele><time>2026-04-11T08:59:21.243Z</time></trkpt><trkpt lat="44.3459775" lon="11.3718298"><ele>218.2</ele><time>2026-04-11T08:59:22.244Z</time></trkpt><trkpt lat="44.3459965" lon="11.3719857"><ele>217.0</ele><time>2026-04-11T08:59:23.243Z</time></trkpt><trkpt lat="44.3460147" lon="11.3721802"><ele>218.33333333333331</ele><time>2026-04-11T08:59:24.244Z</time></trkpt><trkpt lat="44.3460378" lon="11.3723918"><ele>219.66666666666669</ele><time>2026-04-11T08:59:25.243Z</time></trkpt><trkpt lat="44.3460665" lon="11.372618"><ele>221.0</ele><time>2026-04-11T08:59:26.243Z</time></trkpt><trkpt lat="44.3461063" lon="11.372866"><ele>223.66666666666669</ele><time>2026-04-11T08:59:27.243Z</time></trkpt><trkpt lat="44.3461623" lon="11.373115"><ele>226.33333333333331</ele><time>2026-04-11T08:59:28.245Z</time></trkpt><trkpt lat="44.3462355" lon="11.3733698"><ele>229.0</ele><time>2026-04-11T08:59:29.243Z</time></trkpt><trkpt lat="44.34631" lon="11.3736127"><ele>222.33333333333331</ele><time>2026-04-11T08:59:30.244Z</time></trkpt><trkpt lat="44.346382" lon="11.3738432"><ele>215.66666666666669</ele><time>2026-04-11T08:59:31.243Z</time></trkpt><trkpt lat="44.3464627" lon="11.3740645"><ele>209.0</ele><time>2026-04-11T08:59:32.245Z</time></trkpt><trkpt lat="44.3465615" lon="11.3742718"><ele>209.0</ele><time>2026-04-11T08:59:33.245Z</time></trkpt><trkpt lat="44.3466767" lon="11.374459"><ele>209.0</ele><time>2026-04-11T08:59:34.244Z</time></trkpt><trkpt lat="44.3467957" lon="11.3746237"><ele>209.0</ele><time>2026-04-11T08:59:35.245Z</time></trkpt><trkpt lat="44.3469077" lon="11.3747715"><ele>212.66666666666669</ele><time>2026-04-11T08:59:36.247Z</time></trkpt><trkpt lat="44.3470023" lon="11.3749237"><ele>216.33333333333331</ele><time>2026-04-11T08:59:37.244Z</time></trkpt><trkpt lat="44.3470777" lon="11.375097"><ele>220.0</ele><time>2026-04-11T08:59:38.244Z</time></trkpt><trkpt lat="44.3471382" lon="11.3753078"><ele>222.0</ele><time>2026-04-11T08:59:39.243Z</time></trkpt><trkpt lat="44.3471917" lon="11.3755532"><ele>224.0</ele><time>2026-04-11T08:59:40.244Z</time></trkpt><trkpt lat="44.3472538" lon="11.3758277"><ele>226.0</ele><time>2026-04-11T08:59:41.245Z</time></trkpt><trkpt lat="44.3473143" lon="11.376129"><ele>221.66666666666666</ele><time>2026-04-11T08:59:42.244Z</time></trkpt><trkpt lat="44.3473693" lon="11.3764243"><ele>217.33333333333331</ele><time>2026-04-11T08:59:43.242Z</time></trkpt><trkpt lat="44.3474223" lon="11.3767205"><ele>213.0</ele><time>2026-04-11T08:59:44.243Z</time></trkpt><trkpt lat="44.3474722" lon="11.3770055"><ele>215.33333333333331</ele><time>2026-04-11T08:59:45.242Z</time></trkpt><trkpt lat="44.347521" lon="11.377279"><ele>217.66666666666666</ele><time>2026-04-11T08:59:46.242Z</time></trkpt><trkpt lat="44.3475742" lon="11.377548"><ele>220.0</ele><time>2026-04-11T08:59:47.246Z</time></trkpt><trkpt lat="44.3476307" lon="11.3778137"><ele>222.66666666666666</ele><time>2026-04-11T08:59:48.244Z</time></trkpt><trkpt lat="44.3476897" lon="11.3780772"><ele>225.33333333333331</ele><time>2026-04-11T08:59:49.242Z</time></trkpt><trkpt lat="44.3477455" lon="11.3783435"><ele>228.0</ele><time>2026-04-11T08:59:50.242Z</time></trkpt><trkpt lat="44.3477968" lon="11.3786043"><ele>228.0</ele><time>2026-04-11T08:59:51.241Z</time></trkpt><trkpt lat="44.3478393" lon="11.3788408"><ele>228.0</ele><time>2026-04-11T08:59:52.241Z</time></trkpt><trkpt lat="44.3478907" lon="11.3790487"><ele>228.0</ele><time>2026-04-11T08:59:53.242Z</time></trkpt><trkpt lat="44.3479598" lon="11.3792313"><ele>221.0</ele><time>2026-04-11T08:59:54.243Z</time></trkpt><trkpt lat="44.3480548" lon="11.3793847"><ele>214.0</ele><time>2026-04-11T08:59:55.241Z</time></trkpt><trkpt lat="44.3481768" lon="11.3795133"><ele>207.0</ele><time>2026-04-11T08:59:56.242Z</time></trkpt><trkpt lat="44.3483227" lon="11.3796248"><ele>214.0</ele><time>2026-04-11T08:59:57.242Z</time></trkpt><trkpt lat="44.3484865" lon="11.3797158"><ele>221.0</ele><time>2026-04-11T08:59:58.241Z</time></trkpt><trkpt lat="44.348659" lon="11.3797892"><ele>228.0</ele><time>2026-04-11T08:59:59.241Z</time></trkpt><trkpt lat="44.3488267" lon="11.3798538"><ele>222.0</ele><time>2026-04-11T09:00:00.242Z</time></trkpt><trkpt lat="44.3489842" lon="11.3799223"><ele>216.0</ele><time>2026-04-11T09:00:01.242Z</time></trkpt><trkpt lat="44.3491293" lon="11.379998"><ele>210.0</ele><time>2026-04-11T09:00:02.242Z</time></trkpt><trkpt lat="44.3492648" lon="11.3800787"><ele>210.0</ele><time>2026-04-11T09:00:03.241Z</time></trkpt><trkpt lat="44.3493928" lon="11.380147"><ele>210.0</ele><time>2026-04-11T09:00:04.24Z</time></trkpt><trkpt lat="44.3495152" lon="11.3801803"><ele>210.0</ele><time>2026-04-11T09:00:05.243Z</time></trkpt><trkpt lat="44.3496338" lon="11.380174"><ele>210.0</ele><time>2026-04-11T09:00:06.242Z</time></trkpt><trkpt lat="44.349747" lon="11.3801502"><ele>209.16666666666666</ele><time>2026-04-11T09:00:07.241Z</time></trkpt><trkpt lat="44.3498448" lon="11.3801432"><ele>208.33333333333331</ele><time>2026-04-11T09:00:08.239Z</time></trkpt><trkpt lat="44.3499268" lon="11.3801738"><ele>207.5</ele><time>2026-04-11T09:00:09.238Z</time></trkpt><trkpt lat="44.3499807" lon="11.3802442"><ele>206.66666666666666</ele><time>2026-04-11T09:00:10.241Z</time></trkpt><trkpt lat="44.3500062" lon="11.3803533"><ele>205.83333333333331</ele><time>2026-04-11T09:00:11.241Z</time></trkpt><trkpt lat="44.3500013" lon="11.3805057"><ele>205.0</ele><time>2026-04-11T09:00:12.242Z</time></trkpt><trkpt lat="44.349974" lon="11.3807013"><ele>204.66666666666666</ele><time>2026-04-11T09:00:13.244Z</time></trkpt><trkpt lat="44.3499352" lon="11.3809142"><ele>204.33333333333331</ele><time>2026-04-11T09:00:14.242Z</time></trkpt><trkpt lat="44.3498885" lon="11.3811373"><ele>204.0</ele><time>2026-04-11T09:00:15.243Z</time></trkpt><trkpt lat="44.3498432" lon="11.3813625"><ele>202.66666666666669</ele><time>2026-04-11T09:00:16.241Z</time></trkpt><trkpt lat="44.3497983" lon="11.3815948"><ele>201.33333333333334</ele><time>2026-04-11T09:00:17.244Z</time></trkpt><trkpt lat="44.3497547" lon="11.3818178"><ele>200.0</ele><time>2026-04-11T09:00:18.243Z</time></trkpt><trkpt lat="44.3497207" lon="11.3820302"><ele>199.5</ele><time>2026-04-11T09:00:19.243Z</time></trkpt><trkpt lat="44.3497095" lon="11.3822343"><ele>199.0</ele><time>2026-04-11T09:00:20.246Z</time></trkpt><trkpt lat="44.3497237" lon="11.3824385"><ele>198.5</ele><time>2026-04-11T09:00:21.242Z</time></trkpt><trkpt lat="44.3497638" lon="11.3826487"><ele>198.0</ele><time>2026-04-11T09:00:22.242Z</time></trkpt><trkpt lat="44.3498288" lon="11.3828587"><ele>201.33333333333331</ele><time>2026-04-11T09:00:23.245Z</time></trkpt><trkpt lat="44.3499178" lon="11.3830605"><ele>204.66666666666666</ele><time>2026-04-11T09:00:24.243Z</time></trkpt><trkpt lat="44.3500293" lon="11.3832517"><ele>208.0</ele><time>2026-04-11T09:00:25.245Z</time></trkpt><trkpt lat="44.3501502" lon="11.3834335"><ele>208.0</ele><time>2026-04-11T09:00:26.24Z</time></trkpt><trkpt lat="44.3502665" lon="11.383599"><ele>208.0</ele><time>2026-04-11T09:00:27.242Z</time></trkpt><trkpt lat="44.350382" lon="11.3837383"><ele>208.0</ele><time>2026-04-11T09:00:28.242Z</time></trkpt><trkpt lat="44.3505092" lon="11.3838393"><ele>207.33333333333331</ele><time>2026-04-11T09:00:29.241Z</time></trkpt><trkpt lat="44.350653" lon="11.3838935"><ele>206.66666666666669</ele><time>2026-04-11T09:00:30.243Z</time></trkpt><trkpt lat="44.3508195" lon="11.383903"><ele>206.0</ele><time>2026-04-11T09:00:31.248Z</time></trkpt><trkpt lat="44.3509962" lon="11.383872"><ele>203.66666666666669</ele><time>2026-04-11T09:00:32.244Z</time></trkpt><trkpt lat="44.351171" lon="11.3838147"><ele>201.33333333333331</ele><time>2026-04-11T09:00:33.24Z</time></trkpt><trkpt lat="44.3513353" lon="11.3837343"><ele>199.0</ele><time>2026-04-11T09:00:34.24Z</time></trkpt><trkpt lat="44.3514935" lon="11.3836425"><ele>199.0</ele><time>2026-04-11T09:00:35.241Z</time></trkpt><trkpt lat="44.3516442" lon="11.3835468"><ele>199.0</ele><time>2026-04-11T09:00:36.243Z</time></trkpt><trkpt lat="44.3517867" lon="11.3834702"><ele>199.0</ele><time>2026-04-11T09:00:37.241Z</time></trkpt><trkpt lat="44.3519332" lon="11.3834232"><ele>199.0</ele><time>2026-04-11T09:00:38.243Z</time></trkpt><trkpt lat="44.3520703" lon="11.3834082"><ele>199.0</ele><time>2026-04-11T09:00:39.242Z</time></trkpt><trkpt lat="44.3522028" lon="11.3834265"><ele>199.0</ele><time>2026-04-11T09:00:40.247Z</time></trkpt><trkpt lat="44.3523305" lon="11.3834835"><ele>199.0</ele><time>2026-04-11T09:00:41.243Z</time></trkpt><trkpt lat="44.3524402" lon="11.383585"><ele>198.0</ele><time>2026-04-11T09:00:42.243Z</time></trkpt><trkpt lat="44.3525282" lon="11.3837323"><ele>197.0</ele><time>2026-04-11T09:00:43.243Z</time></trkpt><trkpt lat="44.3525968" lon="11.3839207"><ele>196.0</ele><time>2026-04-11T09:00:44.244Z</time></trkpt><trkpt lat="44.3526612" lon="11.384139"><ele>195.66666666666666</ele><time>2026-04-11T09:00:45.243Z</time></trkpt><trkpt lat="44.3527218" lon="11.3843592"><ele>195.33333333333331</ele><time>2026-04-11T09:00:46.243Z</time></trkpt><trkpt lat="44.352774" lon="11.3845798"><ele>195.0</ele><time>2026-04-11T09:00:47.244Z</time></trkpt><trkpt lat="44.352809" lon="11.3848138"><ele>194.66666666666669</ele><time>2026-04-11T09:00:48.244Z</time></trkpt><trkpt lat="44.3528285" lon="11.3850685"><ele>194.33333333333334</ele><time>2026-04-11T09:00:49.244Z</time></trkpt><trkpt lat="44.352843" lon="11.3853463"><ele>194.0</ele><time>2026-04-11T09:00:50.245Z</time></trkpt><trkpt lat="44.3528603" lon="11.3856232"><ele>194.0</ele><time>2026-04-11T09:00:51.244Z</time></trkpt><trkpt lat="44.3528782" lon="11.3858862"><ele>194.0</ele><time>2026-04-11T09:00:52.244Z</time></trkpt><trkpt lat="44.3528927" lon="11.3861357"><ele>194.0</ele><time>2026-04-11T09:00:53.243Z</time></trkpt><trkpt lat="44.3529" lon="11.3863663"><ele>194.25</ele><time>2026-04-11T09:00:54.243Z</time></trkpt><trkpt lat="44.352904" lon="11.3865688"><ele>194.5</ele><time>2026-04-11T09:00:55.242Z</time></trkpt><trkpt lat="44.35291" lon="11.3867402"><ele>194.75</ele><time>2026-04-11T09:00:56.241Z</time></trkpt><trkpt lat="44.3529313" lon="11.3868803"><ele>195.0</ele><time>2026-04-11T09:00:57.245Z</time></trkpt><trkpt lat="44.3529838" lon="11.3869765"><ele>193.8</ele><time>2026-04-11T09:00:58.242Z</time></trkpt><trkpt lat="44.3530658" lon="11.3870223"><ele>192.6</ele><time>2026-04-11T09:00:59.244Z</time></trkpt><trkpt lat="44.3531713" lon="11.3870287"><ele>191.39999999999998</ele><time>2026-04-11T09:01:00.243Z</time></trkpt><trkpt lat="44.3532832" lon="11.3870288"><ele>190.2</ele><time>2026-04-11T09:01:01.243Z</time></trkpt><trkpt lat="44.353388" lon="11.387055"><ele>189.0</ele><time>2026-04-11T09:01:02.244Z</time></trkpt><trkpt lat="44.3534863" lon="11.3871268"><ele>189.0</ele><time>2026-04-11T09:01:03.244Z</time></trkpt><trkpt lat="44.353578" lon="11.387239"><ele>189.0</ele><time>2026-04-11T09:01:04.244Z</time></trkpt><trkpt lat="44.353666" lon="11.3873472"><ele>189.0</ele><time>2026-04-11T09:01:05.244Z</time></trkpt><trkpt lat="44.3537632" lon="11.3874222"><ele>189.0</ele><time>2026-04-11T09:01:06.244Z</time></trkpt><trkpt lat="44.3538727" lon="11.3874483"><ele>189.25</ele><time>2026-04-11T09:01:07.244Z</time></trkpt><trkpt lat="44.3539943" lon="11.3874212"><ele>189.5</ele><time>2026-04-11T09:01:08.248Z</time></trkpt><trkpt lat="44.3541172" lon="11.387344"><ele>189.75</ele><time>2026-04-11T09:01:09.246Z</time></trkpt><trkpt lat="44.3542478" lon="11.387235"><ele>190.0</ele><time>2026-04-11T09:01:10.245Z</time></trkpt><trkpt lat="44.3543805" lon="11.3871253"><ele>191.25</ele><time>2026-04-11T09:01:11.245Z</time></trkpt><trkpt lat="44.35451" lon="11.3870322"><ele>192.5</ele><time>2026-04-11T09:01:12.245Z</time></trkpt><trkpt lat="44.3546385" lon="11.3869553"><ele>193.75</ele><time>2026-04-11T09:01:13.244Z</time></trkpt><trkpt lat="44.3547665" lon="11.3868955"><ele>195.0</ele><time>2026-04-11T09:01:14.244Z</time></trkpt><trkpt lat="44.3548878" lon="11.3868573"><ele>196.25</ele><time>2026-04-11T09:01:15.243Z</time></trkpt><trkpt lat="44.35501" lon="11.386838"><ele>197.5</ele><time>2026-04-11T09:01:16.243Z</time></trkpt><trkpt lat="44.3551335" lon="11.386851"><ele>198.75</ele><time>2026-04-11T09:01:17.243Z</time></trkpt><trkpt lat="44.3552512" lon="11.386908"><ele>200.0</ele><time>2026-04-11T09:01:18.243Z</time></trkpt><trkpt lat="44.3553575" lon="11.387016"><ele>200.0</ele><time>2026-04-11T09:01:19.241Z</time></trkpt><trkpt lat="44.3554518" lon="11.387163"><ele>200.0</ele><time>2026-04-11T09:01:20.24Z</time></trkpt><trkpt lat="44.3555308" lon="11.387336"><ele>200.0</ele><time>2026-04-11T09:01:21.239Z</time></trkpt><trkpt lat="44.3555828" lon="11.3875255"><ele>200.0</ele><time>2026-04-11T09:01:22.239Z</time></trkpt><trkpt lat="44.3556017" lon="11.3877168"><ele>200.25</ele><time>2026-04-11T09:01:23.241Z</time></trkpt><trkpt lat="44.3555798" lon="11.3879008"><ele>200.5</ele><time>2026-04-11T09:01:24.239Z</time></trkpt><trkpt lat="44.3555248" lon="11.3880753"><ele>200.75</ele><time>2026-04-11T09:01:25.24Z</time></trkpt><trkpt lat="44.3554557" lon="11.388235"><ele>201.0</ele><time>2026-04-11T09:01:26.241Z</time></trkpt><trkpt lat="44.355397" lon="11.3883927"><ele>197.5</ele><time>2026-04-11T09:01:27.242Z</time></trkpt><trkpt lat="44.3553697" lon="11.3885735"><ele>194.0</ele><time>2026-04-11T09:01:28.239Z</time></trkpt><trkpt lat="44.3553708" lon="11.3887825"><ele>190.5</ele><time>2026-04-11T09:01:29.241Z</time></trkpt><trkpt lat="44.3553825" lon="11.3890125"><ele>187.0</ele><time>2026-04-11T09:01:30.24Z</time></trkpt><trkpt lat="44.355395" lon="11.3892508"><ele>186.0</ele><time>2026-04-11T09:01:31.239Z</time></trkpt><trkpt lat="44.355404" lon="11.3894748"><ele>185.0</ele><time>2026-04-11T09:01:32.228Z</time></trkpt><trkpt lat="44.3554118" lon="11.3896822"><ele>184.0</ele><time>2026-04-11T09:01:33.242Z</time></trkpt><trkpt lat="44.355426" lon="11.3898738"><ele>183.0</ele><time>2026-04-11T09:01:34.238Z</time></trkpt><trkpt lat="44.3554585" lon="11.3900453"><ele>183.0</ele><time>2026-04-11T09:01:35.243Z</time></trkpt><trkpt lat="44.355522" lon="11.3901815"><ele>183.0</ele><time>2026-04-11T09:01:36.243Z</time></trkpt><trkpt lat="44.3556157" lon="11.3902665"><ele>183.0</ele><time>2026-04-11T09:01:37.243Z</time></trkpt><trkpt lat="44.355736" lon="11.3902965"><ele>183.0</ele><time>2026-04-11T09:01:38.244Z</time></trkpt><trkpt lat="44.355874" lon="11.3902683"><ele>186.0</ele><time>2026-04-11T09:01:39.244Z</time></trkpt><trkpt lat="44.3560332" lon="11.3902087"><ele>189.0</ele><time>2026-04-11T09:01:40.241Z</time></trkpt><trkpt lat="44.3562002" lon="11.3901465"><ele>192.0</ele><time>2026-04-11T09:01:41.241Z</time></trkpt><trkpt lat="44.356365" lon="11.390125"><ele>196.0</ele><time>2026-04-11T09:01:42.242Z</time></trkpt><trkpt lat="44.3565277" lon="11.390155"><ele>200.0</ele><time>2026-04-11T09:01:43.241Z</time></trkpt><trkpt lat="44.356683" lon="11.3902327"><ele>204.0</ele><time>2026-04-11T09:01:44.242Z</time></trkpt><trkpt lat="44.3568195" lon="11.3903362"><ele>204.0</ele><time>2026-04-11T09:01:45.242Z</time></trkpt><trkpt lat="44.356929" lon="11.3904567"><ele>204.0</ele><time>2026-04-11T09:01:46.24Z</time></trkpt><trkpt lat="44.3570118" lon="11.3905973"><ele>204.0</ele><time>2026-04-11T09:01:47.241Z</time></trkpt><trkpt lat="44.357069" lon="11.3907585"><ele>204.0</ele><time>2026-04-11T09:01:48.24Z</time></trkpt><trkpt lat="44.3571035" lon="11.390932"><ele>200.25</ele><time>2026-04-11T09:01:49.243Z</time></trkpt><trkpt lat="44.3571097" lon="11.39112"><ele>196.5</ele><time>2026-04-11T09:01:50.243Z</time></trkpt><trkpt lat="44.3571097" lon="11.3913253"><ele>192.75</ele><time>2026-04-11T09:01:51.241Z</time></trkpt><trkpt lat="44.357123" lon="11.391526"><ele>189.0</ele><time>2026-04-11T09:01:52.242Z</time></trkpt><trkpt lat="44.3571682" lon="11.3917175"><ele>192.33333333333331</ele><time>2026-04-11T09:01:53.243Z</time></trkpt><trkpt lat="44.3572443" lon="11.391909"><ele>195.66666666666666</ele><time>2026-04-11T09:01:54.243Z</time></trkpt><trkpt lat="44.3573408" lon="11.3921117"><ele>199.0</ele><time>2026-04-11T09:01:55.242Z</time></trkpt><trkpt lat="44.3574507" lon="11.392327"><ele>199.0</ele><time>2026-04-11T09:01:56.241Z</time></trkpt><trkpt lat="44.3575643" lon="11.3925325"><ele>199.0</ele><time>2026-04-11T09:01:57.242Z</time></trkpt><trkpt lat="44.357675" lon="11.3927202"><ele>199.0</ele><time>2026-04-11T09:01:58.244Z</time></trkpt><trkpt lat="44.3577805" lon="11.3928917"><ele>198.75</ele><time>2026-04-11T09:01:59.244Z</time></trkpt><trkpt lat="44.3578775" lon="11.3930442"><ele>198.5</ele><time>2026-04-11T09:02:00.243Z</time></trkpt><trkpt lat="44.3579622" lon="11.3931838"><ele>198.25</ele><time>2026-04-11T09:02:01.241Z</time></trkpt><trkpt lat="44.3580257" lon="11.3933293"><ele>198.0</ele><time>2026-04-11T09:02:02.244Z</time></trkpt><trkpt lat="44.3580622" lon="11.3934987"><ele>197.5</ele><time>2026-04-11T09:02:03.242Z</time></trkpt><trkpt lat="44.3580722" lon="11.3936938"><ele>197.0</ele><time>2026-04-11T09:02:04.241Z</time></trkpt><trkpt lat="44.3580567" lon="11.3938982"><ele>196.5</ele><time>2026-04-11T09:02:05.243Z</time></trkpt><trkpt lat="44.3580267" lon="11.3941075"><ele>196.0</ele><time>2026-04-11T09:02:06.243Z</time></trkpt><trkpt lat="44.357987" lon="11.3943177"><ele>196.0</ele><time>2026-04-11T09:02:07.242Z</time></trkpt><trkpt lat="44.3579427" lon="11.3945173"><ele>196.0</ele><time>2026-04-11T09:02:08.242Z</time></trkpt><trkpt lat="44.3578998" lon="11.3946978"><ele>196.0</ele><time>2026-04-11T09:02:09.242Z</time></trkpt><trkpt lat="44.357866" lon="11.3948657"><ele>196.0</ele><time>2026-04-11T09:02:10.242Z</time></trkpt><trkpt lat="44.357852" lon="11.3950193"><ele>196.4</ele><time>2026-04-11T09:02:11.242Z</time></trkpt><trkpt lat="44.357873" lon="11.3951538"><ele>196.8</ele><time>2026-04-11T09:02:12.241Z</time></trkpt><trkpt lat="44.357934" lon="11.3952522"><ele>197.20000000000002</ele><time>2026-04-11T09:02:13.239Z</time></trkpt><trkpt lat="44.3580273" lon="11.3952952"><ele>197.60000000000002</ele><time>2026-04-11T09:02:14.243Z</time></trkpt><trkpt lat="44.3581353" lon="11.3953057"><ele>198.0</ele><time>2026-04-11T09:02:15.241Z</time></trkpt><trkpt lat="44.358232" lon="11.3953493"><ele>198.0</ele><time>2026-04-11T09:02:16.242Z</time></trkpt><trkpt lat="44.3583005" lon="11.3954522"><ele>198.0</ele><time>2026-04-11T09:02:17.242Z</time></trkpt><trkpt lat="44.358345" lon="11.3955987"><ele>198.0</ele><time>2026-04-11T09:02:18.241Z</time></trkpt><trkpt lat="44.3583953" lon="11.395739"><ele>198.0</ele><time>2026-04-11T09:02:19.241Z</time></trkpt><trkpt lat="44.3584737" lon="11.3958438"><ele>198.0</ele><time>2026-04-11T09:02:20.242Z</time></trkpt><trkpt lat="44.3585768" lon="11.3959258"><ele>196.75</ele><time>2026-04-11T09:02:21.24Z</time></trkpt><trkpt lat="44.3586915" lon="11.3960085"><ele>195.5</ele><time>2026-04-11T09:02:22.241Z</time></trkpt><trkpt lat="44.358804" lon="11.3961053"><ele>194.25</ele><time>2026-04-11T09:02:23.241Z</time></trkpt><trkpt lat="44.3588987" lon="11.3962262"><ele>193.0</ele><time>2026-04-11T09:02:24.241Z</time></trkpt><trkpt lat="44.3589687" lon="11.3963682"><ele>193.0</ele><time>2026-04-11T09:02:25.244Z</time></trkpt><trkpt lat="44.3590362" lon="11.3965105"><ele>193.0</ele><time>2026-04-11T09:02:26.243Z</time></trkpt><trkpt lat="44.3591292" lon="11.3966407"><ele>193.0</ele><time>2026-04-11T09:02:27.242Z</time></trkpt><trkpt lat="44.3592585" lon="11.3967618"><ele>193.0</ele><time>2026-04-11T09:02:28.242Z</time></trkpt><trkpt lat="44.3594142" lon="11.3968987"><ele>193.0</ele><time>2026-04-11T09:02:29.245Z</time></trkpt><trkpt lat="44.3595852" lon="11.397053"><ele>193.0</ele><time>2026-04-11T09:02:30.241Z</time></trkpt><trkpt lat="44.3597648" lon="11.3972177"><ele>193.0</ele><time>2026-04-11T09:02:31.245Z</time></trkpt><trkpt lat="44.3599455" lon="11.397381"><ele>190.66666666666666</ele><time>2026-04-11T09:02:32.242Z</time></trkpt><trkpt lat="44.3601108" lon="11.3975292"><ele>188.33333333333331</ele><time>2026-04-11T09:02:33.243Z</time></trkpt><trkpt lat="44.3602563" lon="11.3976553"><ele>186.0</ele><time>2026-04-11T09:02:34.241Z</time></trkpt><trkpt lat="44.3603815" lon="11.3977673"><ele>186.0</ele><time>2026-04-11T09:02:35.241Z</time></trkpt><trkpt lat="44.360484" lon="11.397881"><ele>186.0</ele><time>2026-04-11T09:02:36.24Z</time></trkpt><trkpt lat="44.3605582" lon="11.3980172"><ele>186.0</ele><time>2026-04-11T09:02:37.24Z</time></trkpt><trkpt lat="44.3606172" lon="11.39817"><ele>186.0</ele><time>2026-04-11T09:02:38.243Z</time></trkpt><trkpt lat="44.3606933" lon="11.3983115"><ele>186.66666666666666</ele><time>2026-04-11T09:02:39.244Z</time></trkpt><trkpt lat="44.3608092" lon="11.398442"><ele>187.33333333333331</ele><time>2026-04-11T09:02:40.242Z</time></trkpt><trkpt lat="44.3609588" lon="11.398586"><ele>188.0</ele><time>2026-04-11T09:02:41.244Z</time></trkpt><trkpt lat="44.3611123" lon="11.398744"><ele>187.66666666666666</ele><time>2026-04-11T09:02:42.243Z</time></trkpt><trkpt lat="44.361272" lon="11.3989148"><ele>187.33333333333334</ele><time>2026-04-11T09:02:43.242Z</time></trkpt><trkpt lat="44.3614203" lon="11.3990815"><ele>187.0</ele><time>2026-04-11T09:02:44.245Z</time></trkpt><trkpt lat="44.3615595" lon="11.3992383"><ele>187.0</ele><time>2026-04-11T09:02:45.244Z</time></trkpt><trkpt lat="44.3616842" lon="11.3993802"><ele>187.0</ele><time>2026-04-11T09:02:46.246Z</time></trkpt><trkpt lat="44.3617943" lon="11.3995035"><ele>187.0</ele><time>2026-04-11T09:02:47.247Z</time></trkpt><trkpt lat="44.3618927" lon="11.3996167"><ele>187.0</ele><time>2026-04-11T09:02:48.244Z</time></trkpt><trkpt lat="44.3619612" lon="11.3997362"><ele>185.2</ele><time>2026-04-11T09:02:49.244Z</time></trkpt><trkpt lat="44.3619812" lon="11.3998697"><ele>183.39999999999998</ele><time>2026-04-11T09:02:50.244Z</time></trkpt><trkpt lat="44.3619512" lon="11.4000082"><ele>181.60000000000002</ele><time>2026-04-11T09:02:51.243Z</time></trkpt><trkpt lat="44.36189" lon="11.4001588"><ele>179.8</ele><time>2026-04-11T09:02:52.244Z</time></trkpt><trkpt lat="44.3618442" lon="11.4003062"><ele>178.0</ele><time>2026-04-11T09:02:53.246Z</time></trkpt><trkpt lat="44.3618288" lon="11.4004723"><ele>177.5</ele><time>2026-04-11T09:02:54.24Z</time></trkpt><trkpt lat="44.3618332" lon="11.400667"><ele>177.0</ele><time>2026-04-11T09:02:55.241Z</time></trkpt><trkpt lat="44.3618373" lon="11.4008443"><ele>176.5</ele><time>2026-04-11T09:02:56.242Z</time></trkpt><trkpt lat="44.3618427" lon="11.4009928"><ele>176.0</ele><time>2026-04-11T09:02:57.241Z</time></trkpt><trkpt lat="44.361861" lon="11.4011187"><ele>176.0</ele><time>2026-04-11T09:02:58.242Z</time></trkpt><trkpt lat="44.3619068" lon="11.4012175"><ele>176.0</ele><time>2026-04-11T09:02:59.242Z</time></trkpt><trkpt lat="44.3619825" lon="11.4012627"><ele>176.0</ele><time>2026-04-11T09:03:00.24Z</time></trkpt><trkpt lat="44.3620813" lon="11.4012413"><ele>176.0</ele><time>2026-04-11T09:03:01.241Z</time></trkpt><trkpt lat="44.3622007" lon="11.4011762"><ele>176.0</ele><time>2026-04-11T09:03:02.242Z</time></trkpt><trkpt lat="44.3623155" lon="11.4011387"><ele>180.5</ele><time>2026-04-11T09:03:03.244Z</time></trkpt><trkpt lat="44.3624343" lon="11.4011485"><ele>185.0</ele><time>2026-04-11T09:03:04.243Z</time></trkpt><trkpt lat="44.3625663" lon="11.4012018"><ele>189.5</ele><time>2026-04-11T09:03:05.244Z</time></trkpt><trkpt lat="44.3626945" lon="11.401262"><ele>194.0</ele><time>2026-04-11T09:03:06.244Z</time></trkpt><trkpt lat="44.3628162" lon="11.401295"><ele>194.0</ele><time>2026-04-11T09:03:07.242Z</time></trkpt><trkpt lat="44.3629322" lon="11.4013092"><ele>194.0</ele><time>2026-04-11T09:03:08.244Z</time></trkpt><trkpt lat="44.3630415" lon="11.4013348"><ele>194.0</ele><time>2026-04-11T09:03:09.242Z</time></trkpt><trkpt lat="44.363149" lon="11.401391"><ele>194.0</ele><time>2026-04-11T09:03:10.243Z</time></trkpt><trkpt lat="44.3632505" lon="11.4014683"><ele>191.6</ele><time>2026-04-11T09:03:11.243Z</time></trkpt><trkpt lat="44.3633385" lon="11.4015585"><ele>189.2</ele><time>2026-04-11T09:03:12.243Z</time></trkpt><trkpt lat="44.363418" lon="11.4016505"><ele>186.79999999999998</ele><time>2026-04-11T09:03:13.243Z</time></trkpt><trkpt lat="44.3635077" lon="11.4017173"><ele>184.39999999999998</ele><time>2026-04-11T09:03:14.245Z</time></trkpt><trkpt lat="44.3636053" lon="11.4017512"><ele>182.0</ele><time>2026-04-11T09:03:15.244Z</time></trkpt><trkpt lat="44.3638013" lon="11.4017768"><ele>182.0</ele><time>2026-04-11T09:03:17.243Z</time></trkpt></trkseg></trk></gpx>